Observation data for Hackberry on 10/17/2019      Previous  Date       Current Mesonet Observations  Soil Data  Daily Summary Page  Observations in Plain Language
KHA3 170500Z 15007KT 11/M00 A3009 RMK A01 T01121002  RH  045%=      5-min Rain = 0
KHA3 170501Z 15007KT 11/M00 A3009 RMK A01 T01131002  RH  045%=      5-min Rain = 0
KHA3 170502Z 15007KT 11/M00 A3009 RMK A01 T01131002  RH  045%=      5-min Rain = 0
KHA3 170503Z 15007KT 11/M00 A3009 RMK A01 T01131002  RH  045%=      5-min Rain = 0
KHA3 170504Z 15007KT 11/M00 A3009 RMK A01 T01131002  RH  045%=      5-min Rain = 0
KHA3 170505Z 15007KT 11/M00 A3009 RMK A01 T01121002  RH  045%=      5-min Rain = 0
KHA3 170506Z 15006KT 11/M00 A3009 RMK A01 T01121002  RH  045%=      5-min Rain = 0
KHA3 170507Z 15006KT 11/M00 A3009 RMK A01 T01111003  RH  045%=      5-min Rain = 0
KHA3 170508Z 15006KT 11/M00 A3009 RMK A01 T01111002  RH  046%=      5-min Rain = 0
KHA3 170509Z 15006KT 11/M00 A3009 RMK A01 T01101003  RH  046%=      5-min Rain = 0
KHA3 170510Z 15007KT 11/M00 A3009 RMK A01 T01111002  RH  046%=      5-min Rain = 0
KHA3 170511Z 15006KT 11/M00 A3009 RMK A01 T01111002  RH  046%=      5-min Rain = 0
KHA3 170512Z 15007KT 11/M00 A3009 RMK A01 T01101002  RH  046%=      5-min Rain = 0
KHA3 170513Z 15006KT 11/M00 A3009 RMK A01 T01101002  RH  046%=      5-min Rain = 0
KHA3 170514Z 15007KT 11/M00 A3009 RMK A01 T01101002  RH  046%=      5-min Rain = 0
KHA3 170515Z 16006KT 11/M00 A3009 RMK A01 T01101002  RH  046%=      5-min Rain = 0
KHA3 170516Z 16006KT 11/M00 A3009 RMK A01 T01091002  RH  046%=      5-min Rain = 0
KHA3 170517Z 16006KT 11/M00 A3009 RMK A01 T01081001  RH  047%=      5-min Rain = 0
KHA3 170518Z 17005KT 11/M00 A3009 RMK A01 T01071002  RH  047%=      5-min Rain = 0
KHA3 170519Z 17005KT 11/M00 A3009 RMK A01 T01061002  RH  047%=      5-min Rain = 0
KHA3 170520Z 19004KT 10/M00 A3009 RMK A01 T01041002  RH  048%=      5-min Rain = 0
KHA3 170521Z 20003KT 10/M00 A3009 RMK A01 T01031001  RH  048%=      5-min Rain = 0
KHA3 170522Z 22002KT 10/M00 A3009 RMK A01 T01021001  RH  049%=      5-min Rain = 0
KHA3 170523Z 23003KT 10/M00 A3009 RMK A01 T01001002  RH  049%=      5-min Rain = 0
KHA3 170524Z 24002KT 10/M00 A3009 RMK A01 T01001002  RH  049%=      5-min Rain = 0
KHA3 170525Z 28002KT 10/M00 A3009 RMK A01 T01011002  RH  049%=      5-min Rain = 0
KHA3 170526Z 29002KT 10/M00 A3009 RMK A01 T01021002  RH  048%=      5-min Rain = 0
KHA3 170527Z 29002KT 10/M00 A3009 RMK A01 T01021002  RH  048%=      5-min Rain = 0
KHA3 170528Z 29002KT 10/M00 A3009 RMK A01 T01021002  RH  048%=      5-min Rain = 0
KHA3 170529Z 28002KT 10/M00 A3009 RMK A01 T01021002  RH  049%=      5-min Rain = 0
KHA3 170530Z 27002KT 10/M00 A3009 RMK A01 T01011003  RH  048%=      5-min Rain = 0
KHA3 170531Z 27002KT 10/M00 A3009 RMK A01 T01021002  RH  048%=      5-min Rain = 0
KHA3 170532Z 26002KT 10/M00 A3009 RMK A01 T01031003  RH  048%=      5-min Rain = 0
KHA3 170533Z 26002KT 10/M00 A3009 RMK A01 T01041002  RH  048%=      5-min Rain = 0
KHA3 170534Z 25002KT 10/M00 A3009 RMK A01 T01031002  RH  048%=      5-min Rain = 0
KHA3 170535Z 22002KT 10/M00 A3009 RMK A01 T01021001  RH  049%=      5-min Rain = 0
KHA3 170536Z 21002KT 10/M00 A3009 RMK A01 T01001002  RH  049%=      5-min Rain = 0
KHA3 170537Z 19003KT 10/M00 A3009 RMK A01 T00991002  RH  049%=      5-min Rain = 0
KHA3 170538Z 20002KT 10/M00 A3009 RMK A01 T01011003  RH  049%=      5-min Rain = 0
KHA3 170539Z 21003KT 10/M00 A3009 RMK A01 T01031002  RH  048%=      5-min Rain = 0
KHA3 170540Z 20003KT 10/M00 A3009 RMK A01 T01041003  RH  048%=      5-min Rain = 0
KHA3 170541Z 22002KT 10/M00 A3009 RMK A01 T01041003  RH  047%=      5-min Rain = 0
KHA3 170542Z 23002KT 11/M00 A3009 RMK A01 T01051002  RH  048%=      5-min Rain = 0
KHA3 170543Z 22002KT 10/M00 A3009 RMK A01 T01041001  RH  048%=      5-min Rain = 0
KHA3 170544Z 24002KT 10/M00 A3009 RMK A01 T01031001  RH  048%=      5-min Rain = 0
KHA3 170545Z 22002KT 10/M00 A3009 RMK A01 T01021001  RH  049%=      5-min Rain = 0
KHA3 170546Z 22003KT 10/M00 A3009 RMK A01 T01011001  RH  049%=      5-min Rain = 0
KHA3 170547Z 21002KT 10/M00 A3009 RMK A01 T00991002  RH  050%=      5-min Rain = 0
KHA3 170548Z 22003KT 10/M00 A3009 RMK A01 T00981001  RH  050%=      5-min Rain = 0
KHA3 170549Z 20003KT 10/M00 A3009 RMK A01 T00971001  RH  050%=      5-min Rain = 0
KHA3 170550Z 20003KT 10/M00 A3009 RMK A01 T00961002  RH  051%=      5-min Rain = 0
KHA3 170551Z 18003KT 10/M00 A3009 RMK A01 T00961002  RH  050%=      5-min Rain = 0
KHA3 170552Z 20003KT 10/M00 A3009 RMK A01 T00981003  RH  049%=      5-min Rain = 0
KHA3 170553Z 19003KT 10/M00 A3009 RMK A01 T01001003  RH  049%=      5-min Rain = 0
KHA3 170554Z 18003KT 10/M00 A3009 RMK A01 T01011003  RH  048%=      5-min Rain = 0
KHA3 170555Z 18003KT 10/M00 A3009 RMK A01 T01021003  RH  048%=      5-min Rain = 0
KHA3 170556Z 18003KT 10/M00 A3009 RMK A01 T01031003  RH  048%=      5-min Rain = 0
KHA3 170557Z 17003KT 10/M00 A3009 RMK A01 T01041004  RH  047%=      5-min Rain = 0
KHA3 170558Z 18002KT 10/M00 A3009 RMK A01 T01041004  RH  047%=      5-min Rain = 0
KHA3 170559Z 17002KT 11/M00 A3009 RMK A01 T01051004  RH  047%=      5-min Rain = 0
KHA3 170600Z 17003KT 11/M00 A3009 RMK A01 T01051004  RH  047%=      5-min Rain = 0
KHA3 170601Z 17003KT 10/M00 A3009 RMK A01 T01041004  RH  047%=      5-min Rain = 0
KHA3 170602Z 17003KT 10/M01 A3009 RMK A01 T01041005  RH  047%=      5-min Rain = 0
KHA3 170603Z 17003KT 11/M00 A3009 RMK A01 T01051004  RH  047%=      5-min Rain = 0
KHA3 170604Z 17003KT 11/M00 A3009 RMK A01 T01051004  RH  047%=      5-min Rain = 0
KHA3 170605Z 17003KT 11/M00 A3009 RMK A01 T01051004  RH  047%=      5-min Rain = 0
KHA3 170606Z 17004KT 10/M00 A3009 RMK A01 T01041004  RH  047%=      5-min Rain = 0
KHA3 170607Z 17004KT 10/M00 A3009 RMK A01 T01041004  RH  047%=      5-min Rain = 0
KHA3 170608Z 17004KT 11/M00 A3009 RMK A01 T01051004  RH  047%=      5-min Rain = 0
KHA3 170609Z 17004KT 10/M01 A3009 RMK A01 T01041005  RH  047%=      5-min Rain = 0
KHA3 170610Z 17004KT 11/M00 A3009 RMK A01 T01051004  RH  047%=      5-min Rain = 0
KHA3 170611Z 17004KT 11/M01 A3009 RMK A01 T01051005  RH  047%=      5-min Rain = 0
KHA3 170612Z 17005KT 11/M01 A3009 RMK A01 T01051005  RH  046%=      5-min Rain = 0
KHA3 170613Z 16004KT 11/M01 A3009 RMK A01 T01061005  RH  046%=      5-min Rain = 0
KHA3 170614Z 16004KT 11/M01 A3009 RMK A01 T01071005  RH  046%=      5-min Rain = 0
KHA3 170615Z 16005KT 11/M01 A3009 RMK A01 T01081005  RH  046%=      5-min Rain = 0
KHA3 170616Z 16005KT 11/M00 A3009 RMK A01 T01081004  RH  046%=      5-min Rain = 0
KHA3 170617Z 16006KT 11/M00 A3009 RMK A01 T01071004  RH  046%=      5-min Rain = 0
KHA3 170618Z 17006KT 11/M00 A3009 RMK A01 T01051003  RH  047%=      5-min Rain = 0
KHA3 170619Z 17006KT 10/M00 A3009 RMK A01 T01031003  RH  048%=      5-min Rain = 0
KHA3 170620Z 17007KT 10/M00 A3009 RMK A01 T01021003  RH  048%=      5-min Rain = 0
KHA3 170621Z 17008KT 10/M00 A3009 RMK A01 T01021002  RH  048%=      5-min Rain = 0
KHA3 170622Z 17008KT 10/M00 A3009 RMK A01 T01011003  RH  049%=      5-min Rain = 0
KHA3 170623Z 17008KT 10/M00 A3008 RMK A01 T01001002  RH  049%=      5-min Rain = 0
KHA3 170624Z 17008KT 10/M00 A3008 RMK A01 T01001002  RH  049%=      5-min Rain = 0
KHA3 170625Z 17008KT 10/M00 A3008 RMK A01 T01001001  RH  049%=      5-min Rain = 0
KHA3 170626Z 17008KT 10/M00 A3008 RMK A01 T01001001  RH  049%=      5-min Rain = 0
KHA3 170627Z 17008KT 10/M00 A3008 RMK A01 T01001001  RH  049%=      5-min Rain = 0
KHA3 170628Z 17008KT 10/M00 A3008 RMK A01 T01011001  RH  049%=      5-min Rain = 0
KHA3 170629Z 17008KT 10/M00 A3008 RMK A01 T01011001  RH  049%=      5-min Rain = 0
KHA3 170630Z 17008KT 10/M00 A3008 RMK A01 T01021001  RH  049%=      5-min Rain = 0
KHA3 170631Z 17008KT 10/M00 A3008 RMK A01 T01021001  RH  049%=      5-min Rain = 0
KHA3 170632Z 17007KT 10/M00 A3008 RMK A01 T01021001  RH  049%=      5-min Rain = 0
KHA3 170633Z 18007KT 10/M00 A3008 RMK A01 T01021001  RH  049%=      5-min Rain = 0
KHA3 170634Z 18007KT 10/M00 A3008 RMK A01 T01021001  RH  049%=      5-min Rain = 0
KHA3 170635Z 18006KT 10/M00 A3008 RMK A01 T01031001  RH  048%=      5-min Rain = 0
KHA3 170636Z 18006KT 10/M00 A3008 RMK A01 T01031001  RH  048%=      5-min Rain = 0
KHA3 170637Z 18006KT 10/M00 A3008 RMK A01 T01031001  RH  048%=      5-min Rain = 0
KHA3 170638Z 18006KT 10/M00 A3008 RMK A01 T01031002  RH  048%=      5-min Rain = 0
KHA3 170639Z 18005KT 10/M00 A3008 RMK A01 T01031002  RH  048%=      5-min Rain = 0
KHA3 170640Z 18005KT 10/M00 A3008 RMK A01 T01031002  RH  048%=      5-min Rain = 0
KHA3 170641Z 18005KT 10/M00 A3008 RMK A01 T01031002  RH  048%=      5-min Rain = 0
KHA3 170642Z 19004KT 10/M00 A3008 RMK A01 T01031002  RH  048%=      5-min Rain = 0
KHA3 170643Z 19003KT 10/M00 A3008 RMK A01 T01031001  RH  048%=      5-min Rain = 0
KHA3 170644Z 21002KT 10/M00 A3008 RMK A01 T01021002  RH  049%=      5-min Rain = 0
KHA3 170645Z 22001KT 10/M00 A3008 RMK A01 T01001002  RH  049%=      5-min Rain = 0
KHA3 170646Z 21001KT 10/M00 A3008 RMK A01 T00981003  RH  049%=      5-min Rain = 0
KHA3 170647Z 24001KT 10/M00 A3008 RMK A01 T00971004  RH  049%=      5-min Rain = 0
KHA3 170648Z 20001KT 10/M00 A3008 RMK A01 T00961003  RH  050%=      5-min Rain = 0
KHA3 170649Z 00000KT 09/M00 A3008 RMK A01 T00931003  RH  051%=      5-min Rain = 0
KHA3 170650Z 31000KT 09/M00 A3008 RMK A01 T00911004  RH  052%=      5-min Rain = 0
KHA3 170651Z 33000KT 09/M00 A3008 RMK A01 T00881003  RH  053%=      5-min Rain = 0
KHA3 170652Z 30001KT 09/M00 A3008 RMK A01 T00851004  RH  054%=      5-min Rain = 0
KHA3 170653Z 27001KT 08/M00 A3008 RMK A01 T00831004  RH  054%=      5-min Rain = 0
KHA3 170654Z 23001KT 08/M00 A3008 RMK A01 T00831003  RH  054%=      5-min Rain = 0
KHA3 170655Z 23001KT 08/M00 A3008 RMK A01 T00841004  RH  054%=      5-min Rain = 0
KHA3 170656Z 23001KT 09/M00 A3008 RMK A01 T00861003  RH  053%=      5-min Rain = 0
KHA3 170657Z 23002KT 09/M00 A3008 RMK A01 T00891003  RH  052%=      5-min Rain = 0
KHA3 170658Z 21003KT 09/M00 A3008 RMK A01 T00911004  RH  052%=      5-min Rain = 0
KHA3 170659Z 20003KT 09/M00 A3008 RMK A01 T00941004  RH  051%=      5-min Rain = 0
KHA3 170700Z 21002KT 10/M00 A3008 RMK A01 T00961003  RH  050%=      5-min Rain = 0
KHA3 170701Z 22002KT 10/M00 A3008 RMK A01 T00971004  RH  049%=      5-min Rain = 0
KHA3 170702Z 22002KT 10/M00 A3008 RMK A01 T00981004  RH  049%=      5-min Rain = 0
KHA3 170703Z 22003KT 10/M00 A3008 RMK A01 T00981004  RH  049%=      5-min Rain = 0
KHA3 170704Z 23002KT 10/M00 A3008 RMK A01 T00991004  RH  049%=      5-min Rain = 0
KHA3 170705Z 24003KT 10/M00 A3008 RMK A01 T00981003  RH  049%=      5-min Rain = 0
KHA3 170706Z 23003KT 10/M00 A3008 RMK A01 T00951003  RH  050%=      5-min Rain = 0
KHA3 170707Z 24003KT 09/M00 A3008 RMK A01 T00911003  RH  052%=      5-min Rain = 0
KHA3 170708Z 23004KT 09/M00 A3008 RMK A01 T00871002  RH  054%=      5-min Rain = 0
KHA3 170709Z 23004KT 08/M00 A3008 RMK A01 T00821002  RH  055%=      5-min Rain = 0
KHA3 170710Z 22004KT 08/M00 A3008 RMK A01 T00781002  RH  057%=      5-min Rain = 0
KHA3 170711Z 23004KT 08/M00 A3008 RMK A01 T00761002  RH  058%=      5-min Rain = 0
KHA3 170712Z 22004KT 08/M00 A3008 RMK A01 T00751002  RH  058%=      5-min Rain = 0
KHA3 170713Z 22004KT 07/M00 A3008 RMK A01 T00741001  RH  059%=      5-min Rain = 0
KHA3 170714Z 21004KT 07/M00 A3008 RMK A01 T00731001  RH  059%=      5-min Rain = 0
KHA3 170715Z 21004KT 07/M00 A3008 RMK A01 T00731002  RH  059%=      5-min Rain = 0
KHA3 170716Z 21004KT 07/M00 A3008 RMK A01 T00741002  RH  059%=      5-min Rain = 0
KHA3 170717Z 21004KT 08/M00 A3008 RMK A01 T00761002  RH  058%=      5-min Rain = 0
KHA3 170718Z 21004KT 08/M00 A3008 RMK A01 T00791002  RH  057%=      5-min Rain = 0
KHA3 170719Z 21004KT 08/M00 A3008 RMK A01 T00801001  RH  056%=      5-min Rain = 0
KHA3 170720Z 20004KT 08/M00 A3008 RMK A01 T00811002  RH  056%=      5-min Rain = 0
KHA3 170721Z 20004KT 08/M00 A3008 RMK A01 T00831002  RH  055%=      5-min Rain = 0
KHA3 170722Z 20004KT 08/M00 A3008 RMK A01 T00841002  RH  055%=      5-min Rain = 0
KHA3 170723Z 19004KT 09/M00 A3008 RMK A01 T00851002  RH  054%=      5-min Rain = 0
KHA3 170724Z 19005KT 09/M00 A3008 RMK A01 T00861002  RH  054%=      5-min Rain = 0
KHA3 170725Z 19005KT 09/M00 A3008 RMK A01 T00861002  RH  054%=      5-min Rain = 0
KHA3 170731Z 19006KT 09/M00 A3007 RMK A01 T00891001  RH  053%=      5-min Rain = 0
KHA3 170732Z 19006KT 09/M00 A3007 RMK A01 T00891001  RH  053%=      5-min Rain = 0
KHA3 170733Z 19006KT 09/00 A3007 RMK A01 T00890000  RH  054%=      5-min Rain = 0
KHA3 170734Z 18007KT 09/00 A3007 RMK A01 T00890001  RH  054%=      5-min Rain = 0
KHA3 170735Z 18006KT 09/00 A3007 RMK A01 T00900001  RH  054%=      5-min Rain = 0
KHA3 170736Z 18007KT 09/00 A3007 RMK A01 T00910001  RH  053%=      5-min Rain = 0
KHA3 170737Z 18007KT 09/00 A3007 RMK A01 T00920000  RH  053%=      5-min Rain = 0
KHA3 170738Z 18007KT 09/00 A3007 RMK A01 T009400-0  RH  052%=      5-min Rain = 0
KHA3 170739Z 18007KT 10/00 A3007 RMK A01 T009500-0  RH  051%=      5-min Rain = 0
KHA3 170740Z 18007KT 10/00 A3007 RMK A01 T009600-0  RH  051%=      5-min Rain = 0
KHA3 170741Z 18007KT 10/00 A3007 RMK A01 T009600-0  RH  051%=      5-min Rain = 0
KHA3 170742Z 18007KT 10/M00 A3008 RMK A01 T00961001  RH  051%=      5-min Rain = 0
KHA3 170743Z 18007KT 10/M00 A3008 RMK A01 T00971001  RH  051%=      5-min Rain = 0
KHA3 170744Z 18007KT 10/M00 A3008 RMK A01 T00971001  RH  051%=      5-min Rain = 0
KHA3 170745Z 18007KT 10/00 A3008 RMK A01 T009700-0  RH  051%=      5-min Rain = 0
KHA3 170746Z 18007KT 10/00 A3008 RMK A01 T009700-0  RH  051%=      5-min Rain = 0
KHA3 170747Z 18007KT 10/00 A3008 RMK A01 T009700-0  RH  051%=      5-min Rain = 0
KHA3 170748Z 18007KT 10/M00 A3008 RMK A01 T00971001  RH  050%=      5-min Rain = 0
KHA3 170749Z 18007KT 10/M00 A3008 RMK A01 T00971001  RH  050%=      5-min Rain = 0
KHA3 170750Z 18007KT 10/M00 A3008 RMK A01 T00981001  RH  050%=      5-min Rain = 0
KHA3 170751Z 19007KT 10/M00 A3008 RMK A01 T00981001  RH  050%=      5-min Rain = 0
KHA3 170752Z 18007KT 10/M00 A3008 RMK A01 T00981001  RH  050%=      5-min Rain = 0
KHA3 170753Z 18007KT 10/M00 A3008 RMK A01 T00971001  RH  050%=      5-min Rain = 0
KHA3 170754Z 18007KT 10/M00 A3008 RMK A01 T00981001  RH  050%=      5-min Rain = 0
KHA3 170755Z 18006KT 10/M00 A3008 RMK A01 T00981001  RH  050%=      5-min Rain = 0
KHA3 170756Z 18006KT 10/M00 A3008 RMK A01 T00981001  RH  050%=      5-min Rain = 0
KHA3 170757Z 18006KT 10/M00 A3008 RMK A01 T00981001  RH  050%=      5-min Rain = 0
KHA3 170758Z 18006KT 10/M00 A3008 RMK A01 T00971001  RH  050%=      5-min Rain = 0
KHA3 170759Z 18006KT 10/M00 A3008 RMK A01 T00971001  RH  050%=      5-min Rain = 0
KHA3 170800Z 18005KT 10/M00 A3008 RMK A01 T00971001  RH  050%=      5-min Rain = 0
KHA3 170801Z 19005KT 10/M00 A3008 RMK A01 T00971001  RH  050%=      5-min Rain = 0
KHA3 170802Z 19005KT 10/M00 A3008 RMK A01 T00961001  RH  051%=      5-min Rain = 0
KHA3 170803Z 19004KT 10/M00 A3008 RMK A01 T00961001  RH  051%=      5-min Rain = 0
KHA3 170804Z 20004KT 10/M00 A3008 RMK A01 T00951002  RH  051%=      5-min Rain = 0
KHA3 170805Z 20003KT 10/M00 A3008 RMK A01 T00951001  RH  051%=      5-min Rain = 0
KHA3 170806Z 22002KT 10/M00 A3008 RMK A01 T00951001  RH  051%=      5-min Rain = 0
KHA3 170807Z 23001KT 09/M00 A3008 RMK A01 T00931002  RH  052%=      5-min Rain = 0
KHA3 170808Z 25001KT 09/M00 A3008 RMK A01 T00901002  RH  052%=      5-min Rain = 0
KHA3 170809Z 26001KT 09/M00 A3008 RMK A01 T00871003  RH  053%=      5-min Rain = 0
KHA3 170810Z 28001KT 09/M00 A3008 RMK A01 T00861003  RH  054%=      5-min Rain = 0
KHA3 170811Z 29001KT 08/M00 A3008 RMK A01 T00841003  RH  054%=      5-min Rain = 0
KHA3 170812Z 27001KT 08/M00 A3008 RMK A01 T00841002  RH  055%=      5-min Rain = 0
KHA3 170813Z 26001KT 08/M00 A3007 RMK A01 T00831003  RH  055%=      5-min Rain = 0
KHA3 170814Z 24002KT 08/M00 A3007 RMK A01 T00821002  RH  055%=      5-min Rain = 0
KHA3 170815Z 22002KT 08/M00 A3007 RMK A01 T00821002  RH  056%=      5-min Rain = 0
KHA3 170816Z 22003KT 08/M00 A3007 RMK A01 T00821002  RH  055%=      5-min Rain = 0
KHA3 170817Z 21003KT 08/M00 A3007 RMK A01 T00831002  RH  055%=      5-min Rain = 0
KHA3 170818Z 21003KT 08/M00 A3007 RMK A01 T00841002  RH  055%=      5-min Rain = 0
KHA3 170819Z 20003KT 08/M00 A3007 RMK A01 T00831001  RH  055%=      5-min Rain = 0
KHA3 170820Z 20004KT 08/M00 A3007 RMK A01 T00821001  RH  056%=      5-min Rain = 0
KHA3 170821Z 21004KT 08/M00 A3007 RMK A01 T00801001  RH  056%=      5-min Rain = 0
KHA3 170822Z 21004KT 08/M00 A3007 RMK A01 T00801002  RH  056%=      5-min Rain = 0
KHA3 170823Z 21004KT 08/M00 A3007 RMK A01 T00801002  RH  056%=      5-min Rain = 0
KHA3 170824Z 21004KT 08/M00 A3007 RMK A01 T00811001  RH  056%=      5-min Rain = 0
KHA3 170825Z 22004KT 08/M00 A3007 RMK A01 T00821001  RH  056%=      5-min Rain = 0
KHA3 170826Z 22004KT 08/00 A3007 RMK A01 T00810000  RH  057%=      5-min Rain = 0
KHA3 170827Z 22004KT 08/00 A3007 RMK A01 T007700-0  RH  058%=      5-min Rain = 0
KHA3 170828Z 21004KT 07/00 A3007 RMK A01 T007400-0  RH  059%=      5-min Rain = 0
KHA3 170829Z 21004KT 07/00 A3007 RMK A01 T007200-0  RH  060%=      5-min Rain = 0
KHA3 170830Z 21004KT 07/00 A3007 RMK A01 T007100-0  RH  060%=      5-min Rain = 0
KHA3 170831Z 21005KT 07/M00 A3007 RMK A01 T00711001  RH  060%=      5-min Rain = 0
KHA3 170832Z 21005KT 07/M00 A3007 RMK A01 T00721001  RH  060%=      5-min Rain = 0
KHA3 170833Z 21005KT 07/M00 A3007 RMK A01 T00741001  RH  059%=      5-min Rain = 0
KHA3 170834Z 21006KT 08/M00 A3007 RMK A01 T00761001  RH  058%=      5-min Rain = 0
KHA3 170835Z 21006KT 08/M00 A3007 RMK A01 T00781001  RH  058%=      5-min Rain = 0
KHA3 170836Z 21005KT 08/M00 A3007 RMK A01 T00801001  RH  057%=      5-min Rain = 0
KHA3 170837Z 21006KT 08/M00 A3007 RMK A01 T00821001  RH  056%=      5-min Rain = 0
KHA3 170838Z 21007KT 08/M00 A3007 RMK A01 T00821001  RH  056%=      5-min Rain = 0
KHA3 170839Z 20007KT 08/00 A3007 RMK A01 T008200-0  RH  056%=      5-min Rain = 0
KHA3 170840Z 20007KT 08/00 A3007 RMK A01 T008000-0  RH  057%=      5-min Rain = 0
KHA3 170841Z 20008KT 08/M00 A3007 RMK A01 T00781001  RH  058%=      5-min Rain = 0
KHA3 170842Z 20007KT 08/M00 A3007 RMK A01 T00761001  RH  058%=      5-min Rain = 0
KHA3 170843Z 20008KT 08/00 A3007 RMK A01 T007600-0  RH  058%=      5-min Rain = 0
KHA3 170844Z 20008KT 08/00 A3007 RMK A01 T00770000  RH  058%=      5-min Rain = 0
KHA3 170845Z 20008KT 08/00 A3007 RMK A01 T00780000  RH  058%=      5-min Rain = 0
KHA3 170846Z 20008KT 08/00 A3007 RMK A01 T00810001  RH  057%=      5-min Rain = 0
KHA3 170847Z 20008KT 08/00 A3007 RMK A01 T00820001  RH  057%=      5-min Rain = 0
KHA3 170848Z 20007KT 08/00 A3007 RMK A01 T00830002  RH  057%=      5-min Rain = 0
KHA3 170849Z 20008KT 08/00 A3007 RMK A01 T00830001  RH  056%=      5-min Rain = 0
KHA3 170850Z 20008KT 08/00 A3007 RMK A01 T00840001  RH  056%=      5-min Rain = 0
KHA3 170851Z 20008KT 09/00 A3007 RMK A01 T00850001  RH  056%=      5-min Rain = 0
KHA3 170852Z 19008KT 09/00 A3007 RMK A01 T00860001  RH  055%=      5-min Rain = 0
KHA3 170853Z 19009KT 09/00 A3007 RMK A01 T00870001  RH  055%=      5-min Rain = 0
KHA3 170854Z 20009KT 09/00 A3007 RMK A01 T00880001  RH  054%=      5-min Rain = 0
KHA3 170855Z 20009KT 09/00 A3007 RMK A01 T00900002  RH  054%=      5-min Rain = 0
KHA3 170856Z 20009KT 09/00 A3007 RMK A01 T00900001  RH  054%=      5-min Rain = 0
KHA3 170857Z 20009KT 09/00 A3007 RMK A01 T00910001  RH  053%=      5-min Rain = 0
KHA3 170858Z 21008KT 09/00 A3007 RMK A01 T00910001  RH  053%=      5-min Rain = 0
KHA3 170859Z 21008KT 09/00 A3007 RMK A01 T00910001  RH  053%=      5-min Rain = 0
KHA3 170900Z 21008KT 09/00 A3007 RMK A01 T00900001  RH  054%=      5-min Rain = 0
KHA3 170901Z 21008KT 09/00 A3007 RMK A01 T00900001  RH  054%=      5-min Rain = 0
KHA3 170902Z 21009KT 09/00 A3007 RMK A01 T00890000  RH  054%=      5-min Rain = 0
KHA3 170903Z 21009KT 09/00 A3007 RMK A01 T00890000  RH  054%=      5-min Rain = 0
KHA3 170904Z 21009KT 09/00 A3007 RMK A01 T00890000  RH  054%=      5-min Rain = 0
KHA3 170905Z 21009KT 09/00 A3007 RMK A01 T00880000  RH  054%=      5-min Rain = 0
KHA3 170906Z 20009KT 09/00 A3007 RMK A01 T00870000  RH  054%=      5-min Rain = 0
KHA3 170907Z 20009KT 09/00 A3007 RMK A01 T00870000  RH  054%=      5-min Rain = 0
KHA3 170908Z 20009KT 09/00 A3007 RMK A01 T008700-0  RH  054%=      5-min Rain = 0
KHA3 170909Z 20009KT 09/00 A3007 RMK A01 T008800-0  RH  054%=      5-min Rain = 0
KHA3 170910Z 20009KT 09/00 A3006 RMK A01 T00880000  RH  054%=      5-min Rain = 0
KHA3 170911Z 20009KT 09/00 A3006 RMK A01 T00880000  RH  054%=      5-min Rain = 0
KHA3 170912Z 20009KT 09/00 A3006 RMK A01 T00870000  RH  054%=      5-min Rain = 0
KHA3 170913Z 20009KT 09/00 A3006 RMK A01 T00870000  RH  055%=      5-min Rain = 0
KHA3 170914Z 20009KT 09/00 A3006 RMK A01 T00860001  RH  055%=      5-min Rain = 0
KHA3 170915Z 20009KT 09/00 A3006 RMK A01 T00850000  RH  055%=      5-min Rain = 0
KHA3 170916Z 20009KT 09/00 A3006 RMK A01 T00850000  RH  055%=      5-min Rain = 0
KHA3 170917Z 20009KT 09/00 A3006 RMK A01 T00850001  RH  055%=      5-min Rain = 0
KHA3 170918Z 19009KT 09/00 A3006 RMK A01 T00860001  RH  055%=      5-min Rain = 0
KHA3 170919Z 19008KT 09/00 A3006 RMK A01 T00860001  RH  055%=      5-min Rain = 0
KHA3 170920Z 19008KT 09/00 A3006 RMK A01 T00860001  RH  055%=      5-min Rain = 0
KHA3 170921Z 19008KT 09/00 A3006 RMK A01 T00870001  RH  055%=      5-min Rain = 0
KHA3 170922Z 19009KT 09/00 A3006 RMK A01 T00870001  RH  055%=      5-min Rain = 0
KHA3 170923Z 19009KT 09/00 A3006 RMK A01 T00870001  RH  055%=      5-min Rain = 0
KHA3 170924Z 19008KT 09/00 A3006 RMK A01 T00880001  RH  054%=      5-min Rain = 0
KHA3 170925Z 19008KT 09/00 A3006 RMK A01 T00890001  RH  054%=      5-min Rain = 0
KHA3 170926Z 19008KT 09/00 A3006 RMK A01 T00890001  RH  054%=      5-min Rain = 0
KHA3 170927Z 19008KT 09/00 A3006 RMK A01 T00900001  RH  054%=      5-min Rain = 0
KHA3 170928Z 19008KT 09/00 A3006 RMK A01 T00900001  RH  054%=      5-min Rain = 0
KHA3 170929Z 19008KT 09/00 A3006 RMK A01 T00900001  RH  054%=      5-min Rain = 0
KHA3 170930Z 19008KT 09/00 A3006 RMK A01 T00900001  RH  054%=      5-min Rain = 0
KHA3 170931Z 19008KT 09/00 A3006 RMK A01 T00910001  RH  053%=      5-min Rain = 0
KHA3 170932Z 19009KT 09/00 A3006 RMK A01 T00920001  RH  053%=      5-min Rain = 0
KHA3 170933Z 19008KT 09/00 A3006 RMK A01 T00920001  RH  053%=      5-min Rain = 0
KHA3 170934Z 19009KT 09/00 A3006 RMK A01 T00930001  RH  052%=      5-min Rain = 0
KHA3 170935Z 19009KT 09/00 A3006 RMK A01 T00930001  RH  052%=      5-min Rain = 0
KHA3 170936Z 19008KT 09/00 A3006 RMK A01 T00930001  RH  052%=      5-min Rain = 0
KHA3 170937Z 19008KT 09/00 A3006 RMK A01 T00940001  RH  052%=      5-min Rain = 0
KHA3 170938Z 19008KT 09/00 A3006 RMK A01 T00940001  RH  052%=      5-min Rain = 0
KHA3 170939Z 19008KT 09/00 A3006 RMK A01 T00930000  RH  052%=      5-min Rain = 0
KHA3 170940Z 19008KT 09/00 A3006 RMK A01 T00940001  RH  052%=      5-min Rain = 0
KHA3 170941Z 19008KT 09/00 A3006 RMK A01 T00930000  RH  052%=      5-min Rain = 0
KHA3 170942Z 19008KT 09/00 A3006 RMK A01 T00940000  RH  052%=      5-min Rain = 0
KHA3 170943Z 19008KT 09/00 A3006 RMK A01 T00940000  RH  052%=      5-min Rain = 0
KHA3 170944Z 20008KT 09/00 A3006 RMK A01 T00940001  RH  052%=      5-min Rain = 0
KHA3 170945Z 19007KT 09/00 A3006 RMK A01 T00940001  RH  052%=      5-min Rain = 0
KHA3 170946Z 20008KT 09/00 A3006 RMK A01 T00930001  RH  052%=      5-min Rain = 0
KHA3 170947Z 20008KT 09/00 A3006 RMK A01 T00920001  RH  053%=      5-min Rain = 0
KHA3 170948Z 20008KT 09/00 A3006 RMK A01 T00900000  RH  053%=      5-min Rain = 0
KHA3 170949Z 20008KT 09/00 A3006 RMK A01 T00900001  RH  054%=      5-min Rain = 0
KHA3 170950Z 20008KT 09/00 A3006 RMK A01 T00890001  RH  054%=      5-min Rain = 0
KHA3 170951Z 20008KT 09/00 A3006 RMK A01 T00890001  RH  054%=      5-min Rain = 0
KHA3 170952Z 20008KT 09/00 A3006 RMK A01 T00880001  RH  054%=      5-min Rain = 0
KHA3 170953Z 20008KT 09/00 A3006 RMK A01 T00870001  RH  054%=      5-min Rain = 0
KHA3 170954Z 20008KT 09/00 A3006 RMK A01 T00870001  RH  055%=      5-min Rain = 0
KHA3 170955Z 20008KT 09/00 A3006 RMK A01 T00860001  RH  055%=      5-min Rain = 0
KHA3 170956Z 20008KT 09/00 A3006 RMK A01 T00860001  RH  055%=      5-min Rain = 0
KHA3 170957Z 20008KT 09/00 A3006 RMK A01 T00850001  RH  055%=      5-min Rain = 0
KHA3 170958Z 20008KT 09/00 A3006 RMK A01 T00850000  RH  055%=      5-min Rain = 0
KHA3 170959Z 20008KT 09/00 A3006 RMK A01 T00850000  RH  055%=      5-min Rain = 0
KHA3 171000Z 20008KT 08/00 A3006 RMK A01 T00840001  RH  056%=      5-min Rain = 0
KHA3 171001Z 20008KT 08/00 A3006 RMK A01 T00840000  RH  056%=      5-min Rain = 0
KHA3 171002Z 20008KT 08/00 A3006 RMK A01 T00830001  RH  056%=      5-min Rain = 0
KHA3 171003Z 20008KT 08/00 A3006 RMK A01 T00830001  RH  056%=      5-min Rain = 0
KHA3 171004Z 20008KT 08/00 A3006 RMK A01 T00830001  RH  056%=      5-min Rain = 0
KHA3 171005Z 20008KT 08/00 A3006 RMK A01 T00830000  RH  056%=      5-min Rain = 0
KHA3 171006Z 20008KT 08/00 A3006 RMK A01 T00830000  RH  056%=      5-min Rain = 0
KHA3 171007Z 20009KT 08/00 A3006 RMK A01 T00830000  RH  056%=      5-min Rain = 0
KHA3 171008Z 20008KT 08/00 A3006 RMK A01 T00830001  RH  056%=      5-min Rain = 0
KHA3 171009Z 20008KT 08/00 A3006 RMK A01 T00830001  RH  056%=      5-min Rain = 0
KHA3 171010Z 20008KT 08/00 A3006 RMK A01 T00830001  RH  056%=      5-min Rain = 0
KHA3 171011Z 20008KT 08/00 A3006 RMK A01 T00830001  RH  056%=      5-min Rain = 0
KHA3 171012Z 19008KT 08/00 A3006 RMK A01 T00830001  RH  056%=      5-min Rain = 0
KHA3 171013Z 20008KT 08/00 A3006 RMK A01 T00830001  RH  056%=      5-min Rain = 0
KHA3 171014Z 19008KT 08/00 A3006 RMK A01 T00830001  RH  056%=      5-min Rain = 0
KHA3 171015Z 20008KT 08/00 A3006 RMK A01 T00840001  RH  056%=      5-min Rain = 0
KHA3 171016Z 20008KT 09/00 A3006 RMK A01 T00850001  RH  056%=      5-min Rain = 0
KHA3 171017Z 20009KT 09/00 A3006 RMK A01 T00850001  RH  055%=      5-min Rain = 0
KHA3 171018Z 20009KT 09/00 A3006 RMK A01 T00860001  RH  055%=      5-min Rain = 0
KHA3 171019Z 20009KT 09/00 A3005 RMK A01 T00880001  RH  055%=      5-min Rain = 0
KHA3 171020Z 20010KT 09/00 A3005 RMK A01 T00890001  RH  054%=      5-min Rain = 0
KHA3 171021Z 19010KT 09/00 A3005 RMK A01 T00900001  RH  054%=      5-min Rain = 0
KHA3 171022Z 19009KT 09/00 A3005 RMK A01 T00910001  RH  053%=      5-min Rain = 0
KHA3 171023Z 19009KT 09/00 A3005 RMK A01 T00920001  RH  053%=      5-min Rain = 0
KHA3 171024Z 19009KT 09/00 A3005 RMK A01 T00930000  RH  052%=      5-min Rain = 0
KHA3 171025Z 19008KT 09/00 A3005 RMK A01 T00940000  RH  052%=      5-min Rain = 0
KHA3 171026Z 20008KT 10/00 A3005 RMK A01 T009500-0  RH  052%=      5-min Rain = 0
KHA3 171027Z 20008KT 10/M00 A3005 RMK A01 T00951001  RH  051%=      5-min Rain = 0
KHA3 171028Z 20008KT 10/M00 A3005 RMK A01 T00961001  RH  051%=      5-min Rain = 0
KHA3 171029Z 20008KT 10/M00 A3005 RMK A01 T00961001  RH  051%=      5-min Rain = 0
KHA3 171030Z 20008KT 10/00 A3005 RMK A01 T009600-0  RH  051%=      5-min Rain = 0
KHA3 171031Z 20008KT 10/00 A3006 RMK A01 T009500-0  RH  051%=      5-min Rain = 0
KHA3 171032Z 20008KT 09/00 A3006 RMK A01 T00940000  RH  052%=      5-min Rain = 0
KHA3 171033Z 20008KT 09/00 A3006 RMK A01 T009200-0  RH  052%=      5-min Rain = 0
KHA3 171034Z 21008KT 09/00 A3006 RMK A01 T009100-0  RH  053%=      5-min Rain = 0
KHA3 171035Z 20008KT 09/00 A3006 RMK A01 T00900000  RH  053%=      5-min Rain = 0
KHA3 171036Z 20008KT 09/00 A3006 RMK A01 T00890000  RH  053%=      5-min Rain = 0
KHA3 171037Z 20009KT 09/00 A3006 RMK A01 T00890000  RH  054%=      5-min Rain = 0
KHA3 171038Z 20009KT 09/00 A3006 RMK A01 T00880000  RH  054%=      5-min Rain = 0
KHA3 171039Z 20010KT 09/00 A3006 RMK A01 T00880000  RH  054%=      5-min Rain = 0
KHA3 171040Z 20009KT 09/00 A3006 RMK A01 T00870000  RH  054%=      5-min Rain = 0
KHA3 171041Z 20009KT 09/00 A3006 RMK A01 T00860000  RH  055%=      5-min Rain = 0
KHA3 171042Z 20009KT 09/00 A3006 RMK A01 T00850000  RH  055%=      5-min Rain = 0
KHA3 171043Z 20009KT 09/00 A3006 RMK A01 T00850000  RH  055%=      5-min Rain = 0
KHA3 171044Z 20009KT 09/00 A3006 RMK A01 T00850000  RH  055%=      5-min Rain = 0
KHA3 171045Z 20009KT 09/00 A3006 RMK A01 T00850000  RH  055%=      5-min Rain = 0
KHA3 171046Z 20009KT 09/00 A3006 RMK A01 T00850000  RH  055%=      5-min Rain = 0
KHA3 171047Z 20009KT 09/00 A3006 RMK A01 T00850000  RH  055%=      5-min Rain = 0
KHA3 171048Z 20009KT 09/00 A3006 RMK A01 T00850000  RH  055%=      5-min Rain = 0
KHA3 171049Z 19008KT 09/00 A3006 RMK A01 T00850000  RH  055%=      5-min Rain = 0
KHA3 171050Z 19008KT 08/00 A3006 RMK A01 T00840000  RH  055%=      5-min Rain = 0
KHA3 171051Z 19008KT 08/00 A3006 RMK A01 T008400-0  RH  055%=      5-min Rain = 0
KHA3 171052Z 19009KT 08/00 A3006 RMK A01 T008400-0  RH  055%=      5-min Rain = 0
KHA3 171053Z 19008KT 09/M00 A3006 RMK A01 T00851001  RH  055%=      5-min Rain = 0
KHA3 171054Z 19008KT 09/M00 A3006 RMK A01 T00851001  RH  055%=      5-min Rain = 0
KHA3 171055Z 19008KT 09/M00 A3006 RMK A01 T00851001  RH  055%=      5-min Rain = 0
KHA3 171056Z 19008KT 09/00 A3006 RMK A01 T008600-0  RH  055%=      5-min Rain = 0
KHA3 171057Z 19008KT 09/M00 A3006 RMK A01 T00861001  RH  054%=      5-min Rain = 0
KHA3 171058Z 19008KT 09/00 A3006 RMK A01 T008700-0  RH  054%=      5-min Rain = 0
KHA3 171059Z 20008KT 09/00 A3006 RMK A01 T00870000  RH  054%=      5-min Rain = 0
KHA3 171100Z 20008KT 09/00 A3006 RMK A01 T008600-0  RH  055%=      5-min Rain = 0
KHA3 171101Z 20007KT 09/M00 A3006 RMK A01 T00851001  RH  055%=      5-min Rain = 0
KHA3 171102Z 20007KT 08/00 A3006 RMK A01 T008300-0  RH  055%=      5-min Rain = 0
KHA3 171103Z 20007KT 08/00 A3006 RMK A01 T008200-0  RH  056%=      5-min Rain = 0
KHA3 171104Z 20007KT 08/M00 A3006 RMK A01 T00811001  RH  056%=      5-min Rain = 0
KHA3 171105Z 20007KT 08/M00 A3006 RMK A01 T00801001  RH  057%=      5-min Rain = 0
KHA3 171106Z 20008KT 08/M00 A3006 RMK A01 T00791001  RH  057%=      5-min Rain = 0
KHA3 171107Z 20008KT 08/00 A3006 RMK A01 T007800-0  RH  058%=      5-min Rain = 0
KHA3 171108Z 20007KT 08/00 A3006 RMK A01 T007700-0  RH  058%=      5-min Rain = 0
KHA3 171109Z 20007KT 08/00 A3006 RMK A01 T007600-0  RH  058%=      5-min Rain = 0
KHA3 171110Z 20007KT 08/00 A3006 RMK A01 T007500-0  RH  059%=      5-min Rain = 0
KHA3 171111Z 19008KT 07/00 A3006 RMK A01 T007400-0  RH  059%=      5-min Rain = 0
KHA3 171112Z 19008KT 07/00 A3006 RMK A01 T007400-0  RH  059%=      5-min Rain = 0
KHA3 171113Z 20009KT 07/00 A3006 RMK A01 T00740000  RH  059%=      5-min Rain = 0
KHA3 171114Z 19009KT 08/00 A3006 RMK A01 T00750000  RH  059%=      5-min Rain = 0
KHA3 171115Z 19009KT 08/00 A3006 RMK A01 T00760001  RH  059%=      5-min Rain = 0
KHA3 171116Z 19008KT 08/00 A3006 RMK A01 T00770001  RH  058%=      5-min Rain = 0
KHA3 171117Z 19008KT 08/00 A3006 RMK A01 T00770000  RH  058%=      5-min Rain = 0
KHA3 171118Z 19008KT 08/00 A3006 RMK A01 T00770000  RH  058%=      5-min Rain = 0
KHA3 171119Z 19008KT 08/00 A3006 RMK A01 T007700-0  RH  058%=      5-min Rain = 0
KHA3 171120Z 19009KT 08/00 A3006 RMK A01 T00780000  RH  058%=      5-min Rain = 0
KHA3 171121Z 19009KT 08/00 A3006 RMK A01 T00800000  RH  057%=      5-min Rain = 0
KHA3 171122Z 19009KT 08/00 A3005 RMK A01 T00830001  RH  056%=      5-min Rain = 0
KHA3 171123Z 19010KT 09/00 A3006 RMK A01 T00850001  RH  055%=      5-min Rain = 0
KHA3 171124Z 19010KT 09/00 A3006 RMK A01 T00870001  RH  055%=      5-min Rain = 0
KHA3 171125Z 19009KT 09/00 A3006 RMK A01 T00880001  RH  054%=      5-min Rain = 0
KHA3 171126Z 19010KT 09/00 A3006 RMK A01 T00900001  RH  054%=      5-min Rain = 0
KHA3 171127Z 19009KT 09/00 A3006 RMK A01 T00910001  RH  053%=      5-min Rain = 0
KHA3 171128Z 20010KT 09/00 A3006 RMK A01 T00920001  RH  053%=      5-min Rain = 0
KHA3 171129Z 19009KT 09/00 A3006 RMK A01 T00930000  RH  052%=      5-min Rain = 0
KHA3 171130Z 20009KT 09/00 A3006 RMK A01 T00940001  RH  052%=      5-min Rain = 0
KHA3 171131Z 20009KT 09/00 A3006 RMK A01 T00940000  RH  052%=      5-min Rain = 0
KHA3 171132Z 19009KT 10/00 A3006 RMK A01 T009500-0  RH  052%=      5-min Rain = 0
KHA3 171133Z 19009KT 10/M00 A3006 RMK A01 T00961001  RH  051%=      5-min Rain = 0
KHA3 171134Z 19009KT 10/00 A3006 RMK A01 T009600-0  RH  051%=      5-min Rain = 0
KHA3 171135Z 19010KT 10/M00 A3006 RMK A01 T00951001  RH  051%=      5-min Rain = 0
KHA3 171136Z 19010KT 09/M00 A3006 RMK A01 T00941001  RH  051%=      5-min Rain = 0
KHA3 171137Z 19010KT 09/M00 A3006 RMK A01 T00941001  RH  052%=      5-min Rain = 0
KHA3 171138Z 19010KT 09/M00 A3006 RMK A01 T00931001  RH  052%=      5-min Rain = 0
KHA3 171139Z 19010KT 09/M00 A3006 RMK A01 T00931001  RH  052%=      5-min Rain = 0
KHA3 171140Z 19010KT 09/M00 A3006 RMK A01 T00921001  RH  052%=      5-min Rain = 0
KHA3 171141Z 19010KT 09/M00 A3006 RMK A01 T00931001  RH  052%=      5-min Rain = 0
KHA3 171142Z 19010KT 09/M00 A3006 RMK A01 T00931001  RH  052%=      5-min Rain = 0
KHA3 171143Z 19010KT 09/M00 A3006 RMK A01 T00921001  RH  052%=      5-min Rain = 0
KHA3 171144Z 19010KT 09/M00 A3005 RMK A01 T00921001  RH  052%=      5-min Rain = 0
KHA3 171145Z 19010KT 09/M00 A3005 RMK A01 T00921001  RH  052%=      5-min Rain = 0
KHA3 171146Z 19010KT 09/M00 A3005 RMK A01 T00931001  RH  052%=      5-min Rain = 0
KHA3 171147Z 19010KT 09/M00 A3005 RMK A01 T00931001  RH  052%=      5-min Rain = 0
KHA3 171148Z 19010KT 09/M00 A3005 RMK A01 T00931002  RH  052%=      5-min Rain = 0
KHA3 171149Z 19010KT 09/M00 A3005 RMK A01 T00931002  RH  052%=      5-min Rain = 0
KHA3 171150Z 19009KT 09/M00 A3005 RMK A01 T00931002  RH  052%=      5-min Rain = 0
KHA3 171151Z 19010KT 09/M00 A3005 RMK A01 T00931002  RH  051%=      5-min Rain = 0
KHA3 171152Z 20009KT 09/M00 A3005 RMK A01 T00931002  RH  051%=      5-min Rain = 0
KHA3 171153Z 20010KT 09/M00 A3005 RMK A01 T00941002  RH  051%=      5-min Rain = 0
KHA3 171154Z 19010KT 09/M00 A3005 RMK A01 T00931002  RH  052%=      5-min Rain = 0
KHA3 171155Z 19010KT 09/M00 A3005 RMK A01 T00931002  RH  052%=      5-min Rain = 0
KHA3 171156Z 19010KT 09/M00 A3005 RMK A01 T00931002  RH  051%=      5-min Rain = 0
KHA3 171157Z 19010KT 09/M00 A3005 RMK A01 T00931002  RH  051%=      5-min Rain = 0
KHA3 171158Z 19010KT 09/M00 A3005 RMK A01 T00941002  RH  051%=      5-min Rain = 0
KHA3 171159Z 19010KT 09/M00 A3005 RMK A01 T00941002  RH  051%=      5-min Rain = 0
KHA3 171200Z 20010KT 09/M00 A3005 RMK A01 T00941002  RH  051%=      5-min Rain = 0
KHA3 171201Z 20011KT 09/M00 A3005 RMK A01 T00941002  RH  051%=      5-min Rain = 0
KHA3 171202Z 20010KT 10/M00 A3005 RMK A01 T00951003  RH  051%=      5-min Rain = 0
KHA3 171203Z 20010KT 10/M00 A3005 RMK A01 T00951003  RH  050%=      5-min Rain = 0
KHA3 171204Z 20011KT 10/M00 A3005 RMK A01 T00961002  RH  050%=      5-min Rain = 0
KHA3 171205Z 19011KT 10/M00 A3005 RMK A01 T00951003  RH  050%=      5-min Rain = 0
KHA3 171206Z 19010KT 10/M00 A3005 RMK A01 T00951003  RH  050%=      5-min Rain = 0
KHA3 171207Z 19010KT 10/M00 A3005 RMK A01 T00961003  RH  050%=      5-min Rain = 0
KHA3 171208Z 20010KT 10/M00 A3005 RMK A01 T00961003  RH  050%=      5-min Rain = 0
KHA3 171209Z 19009KT 10/M00 A3005 RMK A01 T00961003  RH  050%=      5-min Rain = 0
KHA3 171210Z 20009KT 10/M00 A3005 RMK A01 T00971003  RH  050%=      5-min Rain = 0
KHA3 171211Z 20009KT 10/M00 A3005 RMK A01 T00971003  RH  050%=      5-min Rain = 0
KHA3 171212Z 20009KT 10/M00 A3005 RMK A01 T00981003  RH  049%=      5-min Rain = 0
KHA3 171213Z 20009KT 10/M00 A3005 RMK A01 T00981003  RH  049%=      5-min Rain = 0
KHA3 171214Z 20009KT 10/M00 A3005 RMK A01 T00981003  RH  049%=      5-min Rain = 0
KHA3 171215Z 20009KT 10/M00 A3005 RMK A01 T00981003  RH  049%=      5-min Rain = 0
KHA3 171216Z 19009KT 10/M00 A3005 RMK A01 T00981003  RH  049%=      5-min Rain = 0
KHA3 171217Z 19009KT 10/M00 A3005 RMK A01 T00981003  RH  049%=      5-min Rain = 0
KHA3 171218Z 20010KT 10/M00 A3005 RMK A01 T00971003  RH  050%=      5-min Rain = 0
KHA3 171219Z 20010KT 10/M00 A3005 RMK A01 T00961003  RH  050%=      5-min Rain = 0
KHA3 171220Z 19010KT 10/M00 A3005 RMK A01 T00961004  RH  050%=      5-min Rain = 0
KHA3 171221Z 19010KT 10/M00 A3005 RMK A01 T00961003  RH  050%=      5-min Rain = 0
KHA3 171222Z 19010KT 10/M00 A3004 RMK A01 T00961003  RH  050%=      5-min Rain = 0
KHA3 171223Z 19009KT 10/M00 A3004 RMK A01 T00961003  RH  050%=      5-min Rain = 0
KHA3 171224Z 19010KT 10/M00 A3004 RMK A01 T00951003  RH  050%=      5-min Rain = 0
KHA3 171225Z 19011KT 10/M00 A3004 RMK A01 T00961003  RH  050%=      5-min Rain = 0
KHA3 171226Z 19010KT 10/M00 A3004 RMK A01 T00971003  RH  050%=      5-min Rain = 0
KHA3 171227Z 19010KT 10/M00 A3004 RMK A01 T00971003  RH  050%=      5-min Rain = 0
KHA3 171228Z 19011KT 10/M00 A3004 RMK A01 T00981003  RH  049%=      5-min Rain = 0
KHA3 171229Z 19011KT 10/M00 A3004 RMK A01 T00981003  RH  049%=      5-min Rain = 0
KHA3 171230Z 19011KT 10/M00 A3004 RMK A01 T00991003  RH  049%=      5-min Rain = 0
KHA3 171231Z 19011KT 10/M00 A3004 RMK A01 T01001003  RH  048%=      5-min Rain = 0
KHA3 171232Z 19011KT 10/M00 A3004 RMK A01 T01021004  RH  048%=      5-min Rain = 0
KHA3 171233Z 19011KT 10/M00 A3004 RMK A01 T01031003  RH  048%=      5-min Rain = 0
KHA3 171234Z 19011KT 10/M00 A3004 RMK A01 T01031003  RH  048%=      5-min Rain = 0
KHA3 171235Z 19010KT 10/M00 A3004 RMK A01 T01021003  RH  048%=      5-min Rain = 0
KHA3 171236Z 19011KT 10/M00 A3004 RMK A01 T01021003  RH  048%=      5-min Rain = 0
KHA3 171237Z 19010KT 10/M00 A3004 RMK A01 T01011003  RH  048%=      5-min Rain = 0
KHA3 171238Z 19010KT 10/M00 A3004 RMK A01 T01001003  RH  048%=      5-min Rain = 0
KHA3 171239Z 19011KT 10/M00 A3004 RMK A01 T01001003  RH  049%=      5-min Rain = 0
KHA3 171240Z 19010KT 10/M00 A3004 RMK A01 T01001003  RH  049%=      5-min Rain = 0
KHA3 171241Z 19010KT 10/M00 A3004 RMK A01 T01001003  RH  049%=      5-min Rain = 0
KHA3 171242Z 19010KT 10/M00 A3004 RMK A01 T01001003  RH  049%=      5-min Rain = 0
KHA3 171243Z 20009KT 10/M00 A3004 RMK A01 T00991003  RH  049%=      5-min Rain = 0
KHA3 171244Z 20009KT 10/M00 A3004 RMK A01 T00981003  RH  049%=      5-min Rain = 0
KHA3 171245Z 19010KT 10/M00 A3004 RMK A01 T00971004  RH  050%=      5-min Rain = 0
KHA3 171246Z 19009KT 10/M00 A3004 RMK A01 T00961003  RH  050%=      5-min Rain = 0
KHA3 171247Z 19010KT 10/M00 A3004 RMK A01 T00951003  RH  050%=      5-min Rain = 0
KHA3 171248Z 19009KT 10/M00 A3004 RMK A01 T00951003  RH  050%=      5-min Rain = 0
KHA3 171249Z 19009KT 09/M00 A3004 RMK A01 T00941003  RH  051%=      5-min Rain = 0
KHA3 171250Z 20009KT 09/M00 A3004 RMK A01 T00941003  RH  051%=      5-min Rain = 0
KHA3 171251Z 20008KT 09/M00 A3004 RMK A01 T00941003  RH  051%=      5-min Rain = 0
KHA3 171252Z 20009KT 09/M00 A3004 RMK A01 T00931003  RH  051%=      5-min Rain = 0
KHA3 171253Z 20009KT 09/M00 A3004 RMK A01 T00931003  RH  051%=      5-min Rain = 0
KHA3 171254Z 20009KT 09/M00 A3004 RMK A01 T00911003  RH  052%=      5-min Rain = 0
KHA3 171255Z 19009KT 09/M00 A3005 RMK A01 T00901003  RH  052%=      5-min Rain = 0
KHA3 171256Z 19010KT 09/M00 A3005 RMK A01 T00901003  RH  052%=      5-min Rain = 0
KHA3 171257Z 20010KT 09/M00 A3005 RMK A01 T00901003  RH  052%=      5-min Rain = 0
KHA3 171258Z 20010KT 09/M00 A3005 RMK A01 T00891003  RH  052%=      5-min Rain = 0
KHA3 171259Z 20010KT 09/M00 A3005 RMK A01 T00891003  RH  053%=      5-min Rain = 0
KHA3 171300Z 19010KT 09/M00 A3005 RMK A01 T00881003  RH  053%=      5-min Rain = 0
KHA3 171301Z 20010KT 09/M00 A3005 RMK A01 T00881003  RH  053%=      5-min Rain = 0
KHA3 171302Z 20010KT 09/M00 A3005 RMK A01 T00891003  RH  053%=      5-min Rain = 0
KHA3 171303Z 20010KT 09/M00 A3005 RMK A01 T00891003  RH  053%=      5-min Rain = 0
KHA3 171304Z 20010KT 09/M00 A3005 RMK A01 T00891003  RH  052%=      5-min Rain = 0
KHA3 171305Z 20010KT 09/M00 A3005 RMK A01 T00901003  RH  052%=      5-min Rain = 0
KHA3 171306Z 20010KT 09/M00 A3005 RMK A01 T00911002  RH  052%=      5-min Rain = 0
KHA3 171307Z 20011KT 09/M00 A3005 RMK A01 T00921002  RH  052%=      5-min Rain = 0
KHA3 171308Z 20010KT 09/M00 A3005 RMK A01 T00931002  RH  051%=      5-min Rain = 0
KHA3 171309Z 20011KT 09/M00 A3005 RMK A01 T00941002  RH  051%=      5-min Rain = 0
KHA3 171310Z 20011KT 09/M00 A3005 RMK A01 T00941003  RH  051%=      5-min Rain = 0
KHA3 171311Z 20010KT 10/M00 A3004 RMK A01 T00951002  RH  051%=      5-min Rain = 0
KHA3 171312Z 19011KT 09/M00 A3004 RMK A01 T00941003  RH  051%=      5-min Rain = 0
KHA3 171313Z 19012KT 09/M00 A3004 RMK A01 T00941002  RH  051%=      5-min Rain = 0
KHA3 171314Z 20011KT 09/M00 A3004 RMK A01 T00941003  RH  051%=      5-min Rain = 0
KHA3 171315Z 20011KT 09/M00 A3004 RMK A01 T00941003  RH  051%=      5-min Rain = 0
KHA3 171316Z 20012KT 10/M00 A3004 RMK A01 T00951002  RH  051%=      5-min Rain = 0
KHA3 171317Z 20012KT 09/M00 A3004 RMK A01 T00941003  RH  051%=      5-min Rain = 0
KHA3 171318Z 20011KT 10/M00 A3004 RMK A01 T00951003  RH  051%=      5-min Rain = 0
KHA3 171319Z 19011KT 10/M00 A3004 RMK A01 T00951003  RH  050%=      5-min Rain = 0
KHA3 171320Z 20011KT 10/M00 A3004 RMK A01 T00951003  RH  050%=      5-min Rain = 0
KHA3 171321Z 20010KT 10/M00 A3004 RMK A01 T00951003  RH  050%=      5-min Rain = 0
KHA3 171322Z 20011KT 10/M00 A3004 RMK A01 T00951003  RH  051%=      5-min Rain = 0
KHA3 171323Z 20010KT 10/M00 A3004 RMK A01 T00951003  RH  051%=      5-min Rain = 0
KHA3 171324Z 20011KT 09/M00 A3004 RMK A01 T00941002  RH  051%=      5-min Rain = 0
KHA3 171325Z 20011KT 09/M00 A3004 RMK A01 T00931003  RH  051%=      5-min Rain = 0
KHA3 171326Z 20011KT 09/M00 A3004 RMK A01 T00931003  RH  051%=      5-min Rain = 0
KHA3 171327Z 19011KT 09/M00 A3004 RMK A01 T00931003  RH  051%=      5-min Rain = 0
KHA3 171328Z 19011KT 09/M00 A3004 RMK A01 T00921003  RH  051%=      5-min Rain = 0
KHA3 171329Z 20011KT 09/M00 A3004 RMK A01 T00921002  RH  052%=      5-min Rain = 0
KHA3 171330Z 19010KT 09/M00 A3004 RMK A01 T00911002  RH  052%=      5-min Rain = 0
KHA3 171331Z 19011KT 09/M00 A3004 RMK A01 T00911002  RH  052%=      5-min Rain = 0
KHA3 171332Z 19011KT 09/M00 A3004 RMK A01 T00901002  RH  053%=      5-min Rain = 0
KHA3 171333Z 19011KT 09/M00 A3004 RMK A01 T00901002  RH  053%=      5-min Rain = 0
KHA3 171334Z 19012KT 09/M00 A3004 RMK A01 T00891002  RH  053%=      5-min Rain = 0
KHA3 171335Z 19012KT 09/M00 A3004 RMK A01 T00891002  RH  053%=      5-min Rain = 0
KHA3 171336Z 19012KT 09/M00 A3004 RMK A01 T00891002  RH  053%=      5-min Rain = 0
KHA3 171337Z 19012KT 09/M00 A3004 RMK A01 T00891002  RH  053%=      5-min Rain = 0
KHA3 171338Z 19012KT 09/M00 A3004 RMK A01 T00891002  RH  053%=      5-min Rain = 0
KHA3 171339Z 19012KT 09/M00 A3004 RMK A01 T00901002  RH  053%=      5-min Rain = 0
KHA3 171340Z 19012KT 09/M00 A3004 RMK A01 T00901002  RH  053%=      5-min Rain = 0
KHA3 171341Z 19011KT 09/M00 A3004 RMK A01 T00901002  RH  053%=      5-min Rain = 0
KHA3 171342Z 19012KT 09/M00 A3004 RMK A01 T00901002  RH  052%=      5-min Rain = 0
KHA3 171343Z 20011KT 09/M00 A3004 RMK A01 T00911002  RH  052%=      5-min Rain = 0
KHA3 171344Z 19012KT 09/M00 A3004 RMK A01 T00921002  RH  052%=      5-min Rain = 0
KHA3 171345Z 19011KT 09/M00 A3004 RMK A01 T00921001  RH  052%=      5-min Rain = 0
KHA3 171346Z 20012KT 09/M00 A3004 RMK A01 T00921001  RH  052%=      5-min Rain = 0
KHA3 171347Z 19011KT 09/M00 A3004 RMK A01 T00911001  RH  052%=      5-min Rain = 0
KHA3 171348Z 19011KT 09/00 A3004 RMK A01 T009100-0  RH  053%=      5-min Rain = 0
KHA3 171349Z 19011KT 09/00 A3004 RMK A01 T009100-0  RH  053%=      5-min Rain = 0
KHA3 171350Z 20011KT 09/M00 A3004 RMK A01 T00911001  RH  052%=      5-min Rain = 0
KHA3 171351Z 20011KT 09/00 A3004 RMK A01 T009200-0  RH  052%=      5-min Rain = 0
KHA3 171352Z 20010KT 09/00 A3004 RMK A01 T00930000  RH  052%=      5-min Rain = 0
KHA3 171353Z 20011KT 09/00 A3004 RMK A01 T009400-0  RH  052%=      5-min Rain = 0
KHA3 171354Z 20011KT 10/00 A3004 RMK A01 T009500-0  RH  052%=      5-min Rain = 0
KHA3 171355Z 20010KT 10/00 A3004 RMK A01 T00960001  RH  051%=      5-min Rain = 0
KHA3 171356Z 20010KT 10/00 A3004 RMK A01 T00970001  RH  051%=      5-min Rain = 0
KHA3 171357Z 20010KT 10/00 A3004 RMK A01 T00990001  RH  051%=      5-min Rain = 0
KHA3 171358Z 21010KT 10/00 A3004 RMK A01 T01000002  RH  050%=      5-min Rain = 0
KHA3 171359Z 20009KT 10/00 A3004 RMK A01 T01020002  RH  050%=      5-min Rain = 0
KHA3 171400Z 21010KT 10/00 A3005 RMK A01 T01030001  RH  049%=      5-min Rain = 0
KHA3 171401Z 21008KT 10/00 A3005 RMK A01 T01040002  RH  049%=      5-min Rain = 0
KHA3 171402Z 21008KT 11/00 A3005 RMK A01 T01050002  RH  049%=      5-min Rain = 0
KHA3 171403Z 22008KT 11/00 A3005 RMK A01 T01070002  RH  048%=      5-min Rain = 0
KHA3 171404Z 22008KT 11/00 A3005 RMK A01 T01080002  RH  048%=      5-min Rain = 0
KHA3 171405Z 23008KT 11/00 A3005 RMK A01 T01100002  RH  048%=      5-min Rain = 0
KHA3 171406Z 23008KT 11/00 A3005 RMK A01 T01100001  RH  047%=      5-min Rain = 0
KHA3 171407Z 23008KT 11/00 A3005 RMK A01 T01110002  RH  047%=      5-min Rain = 0
KHA3 171408Z 23009KT 11/00 A3005 RMK A01 T01110002  RH  047%=      5-min Rain = 0
KHA3 171409Z 23007KT 11/00 A3005 RMK A01 T01110002  RH  047%=      5-min Rain = 0
KHA3 171410Z 23006KT 11/00 A3005 RMK A01 T01120003  RH  047%=      5-min Rain = 0
KHA3 171411Z 23007KT 11/00 A3005 RMK A01 T01110003  RH  047%=      5-min Rain = 0
KHA3 171412Z 23007KT 11/00 A3005 RMK A01 T01110004  RH  047%=      5-min Rain = 0
KHA3 171413Z 23008KT 11/00 A3005 RMK A01 T01110002  RH  047%=      5-min Rain = 0
KHA3 171414Z 22008KT 11/00 A3005 RMK A01 T01110001  RH  047%=      5-min Rain = 0
KHA3 171415Z 22007KT 11/00 A3005 RMK A01 T01110002  RH  047%=      5-min Rain = 0
KHA3 171416Z 22009KT 11/00 A3005 RMK A01 T01120002  RH  047%=      5-min Rain = 0
KHA3 171417Z 22008KT 11/00 A3005 RMK A01 T01130002  RH  046%=      5-min Rain = 0
KHA3 171418Z 22008KT 11/00 A3005 RMK A01 T01140004  RH  047%=      5-min Rain = 0
KHA3 171419Z 22009KT 12/00 A3005 RMK A01 T01150003  RH  046%=      5-min Rain = 0
KHA3 171420Z 22008KT 12/00 A3005 RMK A01 T01170002  RH  045%=      5-min Rain = 0
KHA3 171421Z 21008KT 12/00 A3004 RMK A01 T01180003  RH  045%=      5-min Rain = 0
KHA3 171422Z 22009KT 12/00 A3004 RMK A01 T01200003  RH  045%=      5-min Rain = 0
KHA3 171423Z 21008KT 12/00 A3004 RMK A01 T01220004  RH  044%=      5-min Rain = 0
KHA3 171424Z 21010KT 12/00 A3004 RMK A01 T01240004  RH  044%=      5-min Rain = 0
KHA3 171425Z 21009KT 13/00 A3004 RMK A01 T01260004  RH  043%=      5-min Rain = 0
KHA3 171426Z 21009KT 13/01 A3004 RMK A01 T01280006  RH  043%=      5-min Rain = 0
KHA3 171427Z 21010KT 13/01 A3004 RMK A01 T01300005  RH  042%=      5-min Rain = 0
KHA3 171428Z 21009KT 13/00 A3004 RMK A01 T01310004  RH  042%=      5-min Rain = 0
KHA3 171429Z 21008KT 13/01 A3004 RMK A01 T01330007  RH  042%=      5-min Rain = 0
KHA3 171430Z 22010KT 14/01 A3004 RMK A01 T01350007  RH  042%=      5-min Rain = 0
KHA3 171431Z 22010KT 14/01 A3004 RMK A01 T01360005  RH  041%=      5-min Rain = 0
KHA3 171432Z 22010KT 14/00 A3004 RMK A01 T01360004  RH  040%=      5-min Rain = 0
KHA3 171433Z 21009KT 14/00 A3004 RMK A01 T01370004  RH  040%=      5-min Rain = 0
KHA3 171434Z 21010KT 14/01 A3005 RMK A01 T01370005  RH  040%=      5-min Rain = 0
KHA3 171435Z 22008KT 14/01 A3005 RMK A01 T01390008  RH  041%=      5-min Rain = 0
KHA3 171436Z 22009KT 14/01 A3005 RMK A01 T01420008  RH  040%=      5-min Rain = 0
KHA3 171437Z 22011KT 14/01 A3004 RMK A01 T01430007  RH  039%=      5-min Rain = 0
KHA3 171438Z 22010KT 14/01 A3004 RMK A01 T01430005  RH  039%=      5-min Rain = 0
KHA3 171439Z 22010KT 14/00 A3004 RMK A01 T01440004  RH  038%=      5-min Rain = 0
KHA3 171440Z 22007KT 15/01 A3004 RMK A01 T01450007  RH  039%=      5-min Rain = 0
KHA3 171441Z 22010KT 15/01 A3004 RMK A01 T01470008  RH  039%=      5-min Rain = 0
KHA3 171442Z 21009KT 15/01 A3004 RMK A01 T01470007  RH  038%=      5-min Rain = 0
KHA3 171443Z 21010KT 15/01 A3004 RMK A01 T01490009  RH  038%=      5-min Rain = 0
KHA3 171444Z 21008KT 15/01 A3004 RMK A01 T01490009  RH  038%=      5-min Rain = 0
KHA3 171445Z 21011KT 15/01 A3004 RMK A01 T01510008  RH  038%=      5-min Rain = 0
KHA3 171446Z 22010KT 15/01 A3004 RMK A01 T01510008  RH  038%=      5-min Rain = 0
KHA3 171447Z 21009KT 15/01 A3004 RMK A01 T01500007  RH  038%=      5-min Rain = 0
KHA3 171448Z 22010KT 15/01 A3004 RMK A01 T01510008  RH  038%=      5-min Rain = 0
KHA3 171449Z 22009KT 15/01 A3004 RMK A01 T01510008  RH  038%=      5-min Rain = 0
KHA3 171450Z 22010KT 15/01 A3004 RMK A01 T01520007  RH  037%=      5-min Rain = 0
KHA3 171451Z 23010KT 15/01 A3005 RMK A01 T01520008  RH  038%=      5-min Rain = 0
KHA3 171452Z 22008KT 15/01 A3005 RMK A01 T01520009  RH  038%=      5-min Rain = 0
KHA3 171453Z 22008KT 15/01 A3005 RMK A01 T01530010  RH  038%=      5-min Rain = 0
KHA3 171454Z 21009KT 16/01 A3005 RMK A01 T01550011  RH  037%=      5-min Rain = 0
KHA3 171455Z 22008KT 16/01 A3005 RMK A01 T01570012  RH  038%=      5-min Rain = 0
KHA3 171456Z 22008KT 16/01 A3005 RMK A01 T01580012  RH  037%=      5-min Rain = 0
KHA3 171457Z 22008KT 16/01 A3005 RMK A01 T01590012  RH  037%=      5-min Rain = 0
KHA3 171458Z 22006KT 16/01 A3005 RMK A01 T01590012  RH  037%=      5-min Rain = 0
KHA3 171459Z 22009KT 16/01 A3004 RMK A01 T01610013  RH  037%=      5-min Rain = 0
KHA3 171500Z 22008KT 16/01 A3004 RMK A01 T01610010  RH  036%=      5-min Rain = 0
KHA3 171501Z 21008KT 16/01 A3004 RMK A01 T01620013  RH  036%=      5-min Rain = 0
KHA3 171502Z 21008KT 16/01 A3004 RMK A01 T01640014  RH  036%=      5-min Rain = 0
KHA3 171503Z 21010KT 17/01 A3004 RMK A01 T01650014  RH  036%=      5-min Rain = 0
KHA3 171504Z 22008KT 17/01 A3004 RMK A01 T01650012  RH  035%=      5-min Rain = 0
KHA3 171505Z 21008KT 17/01 A3004 RMK A01 T01660014  RH  036%=      5-min Rain = 0
KHA3 171506Z 21008KT 17/01 A3004 RMK A01 T01660013  RH  035%=      5-min Rain = 0
KHA3 171507Z 22008KT 17/01 A3004 RMK A01 T01670013  RH  035%=      5-min Rain = 0
KHA3 171508Z 21007KT 17/01 A3004 RMK A01 T01690014  RH  035%=      5-min Rain = 0
KHA3 171509Z 22009KT 17/01 A3004 RMK A01 T01700014  RH  035%=      5-min Rain = 0
KHA3 171510Z 21009KT 17/01 A3004 RMK A01 T01710014  RH  035%=      5-min Rain = 0
KHA3 171511Z 21010KT 17/01 A3004 RMK A01 T01720012  RH  034%=      5-min Rain = 0
KHA3 171512Z 22009KT 17/01 A3004 RMK A01 T01720012  RH  034%=      5-min Rain = 0
KHA3 171513Z 21010KT 17/01 A3004 RMK A01 T01720013  RH  034%=      5-min Rain = 0
KHA3 171514Z 21010KT 17/01 A3004 RMK A01 T01720012  RH  034%=      5-min Rain = 0
KHA3 171515Z 21010KT 17/01 A3004 RMK A01 T01720011  RH  034%=      5-min Rain = 0
KHA3 171516Z 22012KT 17/01 A3004 RMK A01 T01740011  RH  033%=      5-min Rain = 0
KHA3 171517Z 22010KT 17/01 A3004 RMK A01 T01740008  RH  033%=      5-min Rain = 0
KHA3 171518Z 21009KT 17/01 A3004 RMK A01 T01740010  RH  033%=      5-min Rain = 0
KHA3 171519Z 21011KT 18/01 A3004 RMK A01 T01750014  RH  034%=      5-min Rain = 0
KHA3 171520Z 20009KT 18/01 A3004 RMK A01 T01760013  RH  033%=      5-min Rain = 0
KHA3 171521Z 21009KT 18/02 A3004 RMK A01 T01760015  RH  034%=      5-min Rain = 0
KHA3 171522Z 22011KT 18/01 A3004 RMK A01 T01770013  RH  033%=      5-min Rain = 0
KHA3 171523Z 22011KT 18/01 A3004 RMK A01 T01780011  RH  033%=      5-min Rain = 0
KHA3 171524Z 22010KT 18/01 A3004 RMK A01 T01770010  RH  032%=      5-min Rain = 0
KHA3 171525Z 21009KT 18/01 A3004 RMK A01 T01770012  RH  033%=      5-min Rain = 0
KHA3 171526Z 20009KT 18/01 A3004 RMK A01 T01790014  RH  033%=      5-min Rain = 0
KHA3 171527Z 21010KT 18/02 A3004 RMK A01 T01800015  RH  033%=      5-min Rain = 0
KHA3 171528Z 21007KT 18/02 A3004 RMK A01 T01810016  RH  033%=      5-min Rain = 0
KHA3 171529Z 21009KT 18/02 A3004 RMK A01 T01830017  RH  033%=      5-min Rain = 0
KHA3 171530Z 20010KT 18/02 A3004 RMK A01 T01840015  RH  032%=      5-min Rain = 0
KHA3 171531Z 21011KT 18/01 A3004 RMK A01 T01830014  RH  032%=      5-min Rain = 0
KHA3 171532Z 22011KT 18/01 A3004 RMK A01 T01830013  RH  032%=      5-min Rain = 0
KHA3 171533Z 21009KT 18/01 A3004 RMK A01 T01830013  RH  032%=      5-min Rain = 0
KHA3 171534Z 22008KT 18/02 A3004 RMK A01 T01830017  RH  033%=      5-min Rain = 0
KHA3 171535Z 21010KT 19/02 A3004 RMK A01 T01850017  RH  032%=      5-min Rain = 0
KHA3 171536Z 20010KT 19/02 A3004 RMK A01 T01850018  RH  033%=      5-min Rain = 0
KHA3 171537Z 20009KT 19/02 A3004 RMK A01 T01860017  RH  032%=      5-min Rain = 0
KHA3 171538Z 21009KT 19/02 A3004 RMK A01 T01860019  RH  033%=      5-min Rain = 0
KHA3 171539Z 21010KT 19/02 A3004 RMK A01 T01870018  RH  032%=      5-min Rain = 0
KHA3 171540Z 21011KT 19/01 A3004 RMK A01 T01880014  RH  031%=      5-min Rain = 0
KHA3 171541Z 21012KT 19/01 A3004 RMK A01 T01890013  RH  031%=      5-min Rain = 0
KHA3 171542Z 21011KT 19/01 A3004 RMK A01 T01890014  RH  031%=      5-min Rain = 0
KHA3 171543Z 21011KT 19/01 A3004 RMK A01 T01910013  RH  030%=      5-min Rain = 0
KHA3 171544Z 21012KT 19/01 A3004 RMK A01 T01920013  RH  030%=      5-min Rain = 0
KHA3 171545Z 21013KT 19/01 A3004 RMK A01 T01930012  RH  030%=      5-min Rain = 0
KHA3 171546Z 21009KT 19/01 A3004 RMK A01 T01930012  RH  030%=      5-min Rain = 0
KHA3 171547Z 22009KT 19/01 A3004 RMK A01 T01930014  RH  030%=      5-min Rain = 0
KHA3 171548Z 23012KT 20/01 A3004 RMK A01 T01950011  RH  029%=      5-min Rain = 0
KHA3 171549Z 22011KT 19/01 A3004 RMK A01 T01930009  RH  029%=      5-min Rain = 0
KHA3 171550Z 23013KT 19/01 A3004 RMK A01 T01930009  RH  029%=      5-min Rain = 0
KHA3 171551Z 23011KT 19/01 A3004 RMK A01 T01930009  RH  029%=      5-min Rain = 0
KHA3 171552Z 23012KT 19/01 A3004 RMK A01 T01930011  RH  030%=      5-min Rain = 0
KHA3 171553Z 23009KT 19/01 A3004 RMK A01 T01940011  RH  029%=      5-min Rain = 0
KHA3 171554Z 21010KT 19/01 A3003 RMK A01 T01940012  RH  030%=      5-min Rain = 0
KHA3 171555Z 20011KT 20/01 A3003 RMK A01 T01960013  RH  029%=      5-min Rain = 0
KHA3 171556Z 20010KT 20/01 A3003 RMK A01 T01970014  RH  030%=      5-min Rain = 0
KHA3 171557Z 20010KT 20/02 A3003 RMK A01 T01970015  RH  030%=      5-min Rain = 0
KHA3 171558Z 21010KT 20/02 A3003 RMK A01 T01990016  RH  030%=      5-min Rain = 0
KHA3 171559Z 21011KT 20/02 A3003 RMK A01 T02010017  RH  029%=      5-min Rain = 0
KHA3 171600Z 21011KT 20/02 A3003 RMK A01 T02020015  RH  029%=      5-min Rain = 0
KHA3 171601Z 20010KT 20/01 A3003 RMK A01 T02010014  RH  029%=      5-min Rain = 0
KHA3 171602Z 21010KT 20/02 A3003 RMK A01 T02000015  RH  029%=      5-min Rain = 0
KHA3 171603Z 21011KT 20/01 A3003 RMK A01 T02000013  RH  029%=      5-min Rain = 0
KHA3 171604Z 21011KT 20/01 A3003 RMK A01 T02000012  RH  029%=      5-min Rain = 0
KHA3 171605Z 21012KT 20/02 A3003 RMK A01 T02010015  RH  029%=      5-min Rain = 0
KHA3 171606Z 21010KT 20/01 A3003 RMK A01 T02020013  RH  028%=      5-min Rain = 0
KHA3 171607Z 22011KT 20/01 A3003 RMK A01 T02040012  RH  028%=      5-min Rain = 0
KHA3 171608Z 22009KT 21/01 A3003 RMK A01 T02050013  RH  028%=      5-min Rain = 0
KHA3 171609Z 21011KT 21/01 A3003 RMK A01 T02060011  RH  027%=      5-min Rain = 0
KHA3 171610Z 21009KT 21/01 A3003 RMK A01 T02060014  RH  028%=      5-min Rain = 0
KHA3 171611Z 21010KT 21/01 A3003 RMK A01 T02060012  RH  027%=      5-min Rain = 0
KHA3 171612Z 21011KT 21/01 A3003 RMK A01 T02060014  RH  028%=      5-min Rain = 0
KHA3 171613Z 20011KT 21/01 A3003 RMK A01 T02080011  RH  027%=      5-min Rain = 0
KHA3 171614Z 21011KT 21/01 A3003 RMK A01 T02080008  RH  026%=      5-min Rain = 0
KHA3 171615Z 21014KT 21/01 A3003 RMK A01 T02080009  RH  027%=      5-min Rain = 0
KHA3 171616Z 22012KT 21/01 A3003 RMK A01 T02080007  RH  026%=      5-min Rain = 0
KHA3 171617Z 22010KT 21/01 A3003 RMK A01 T02070008  RH  027%=      5-min Rain = 0
KHA3 171618Z 21009KT 21/01 A3003 RMK A01 T02060009  RH  027%=      5-min Rain = 0
KHA3 171619Z 21009KT 21/01 A3003 RMK A01 T02080011  RH  027%=      5-min Rain = 0
KHA3 171620Z 20009KT 21/01 A3003 RMK A01 T02090013  RH  027%=      5-min Rain = 0
KHA3 171621Z 19010KT 21/02 A3003 RMK A01 T02110016  RH  028%=      5-min Rain = 0
KHA3 171622Z 19009KT 21/01 A3003 RMK A01 T02120014  RH  027%=      5-min Rain = 0
KHA3 171623Z 18009KT 21/01 A3003 RMK A01 T02120014  RH  027%=      5-min Rain = 0
KHA3 171624Z 22010KT 21/02 A3003 RMK A01 T02110015  RH  027%=      5-min Rain = 0
KHA3 171625Z 22010KT 21/01 A3003 RMK A01 T02110010  RH  026%=      5-min Rain = 0
KHA3 171626Z 23010KT 21/01 A3003 RMK A01 T02100011  RH  027%=      5-min Rain = 0
KHA3 171627Z 22009KT 21/01 A3003 RMK A01 T02100009  RH  026%=      5-min Rain = 0
KHA3 171628Z 21011KT 21/01 A3003 RMK A01 T02100011  RH  027%=      5-min Rain = 0
KHA3 171629Z 22010KT 21/01 A3003 RMK A01 T02110010  RH  026%=      5-min Rain = 0
KHA3 171630Z 21010KT 21/01 A3003 RMK A01 T02120012  RH  027%=      5-min Rain = 0
KHA3 171631Z 20009KT 21/02 A3003 RMK A01 T02130017  RH  027%=      5-min Rain = 0
KHA3 171632Z 20008KT 22/02 A3003 RMK A01 T02150015  RH  027%=      5-min Rain = 0
KHA3 171633Z 20009KT 22/02 A3003 RMK A01 T02150020  RH  028%=      5-min Rain = 0
KHA3 171634Z 20008KT 22/02 A3003 RMK A01 T02170015  RH  026%=      5-min Rain = 0
KHA3 171635Z 20008KT 22/02 A3003 RMK A01 T02160015  RH  026%=      5-min Rain = 0
KHA3 171636Z 20010KT 22/02 A3003 RMK A01 T02170017  RH  027%=      5-min Rain = 0
KHA3 171637Z 20010KT 22/02 A3003 RMK A01 T02190015  RH  026%=      5-min Rain = 0
KHA3 171638Z 20008KT 22/02 A3003 RMK A01 T02190017  RH  026%=      5-min Rain = 0
KHA3 171639Z 20008KT 22/02 A3003 RMK A01 T02200018  RH  026%=      5-min Rain = 0
KHA3 171640Z 19009KT 22/01 A3002 RMK A01 T02210014  RH  026%=      5-min Rain = 0
KHA3 171641Z 20008KT 22/01 A3002 RMK A01 T02180013  RH  026%=      5-min Rain = 0
KHA3 171642Z 20011KT 22/02 A3002 RMK A01 T02170016  RH  026%=      5-min Rain = 0
KHA3 171643Z 21010KT 22/02 A3002 RMK A01 T02190015  RH  026%=      5-min Rain = 0
KHA3 171644Z 21008KT 22/02 A3002 RMK A01 T02210015  RH  026%=      5-min Rain = 0
KHA3 171645Z 19009KT 22/02 A3002 RMK A01 T02190015  RH  026%=      5-min Rain = 0
KHA3 171646Z 19012KT 22/02 A3002 RMK A01 T02200015  RH  026%=      5-min Rain = 0
KHA3 171647Z 19011KT 22/01 A3002 RMK A01 T02210011  RH  025%=      5-min Rain = 0
KHA3 171648Z 20011KT 22/01 A3002 RMK A01 T02180010  RH  025%=      5-min Rain = 0
KHA3 171649Z 19011KT 22/01 A3002 RMK A01 T02180012  RH  026%=      5-min Rain = 0
KHA3 171650Z 19010KT 22/01 A3002 RMK A01 T02190010  RH  025%=      5-min Rain = 0
KHA3 171651Z 20009KT 22/01 A3002 RMK A01 T02180011  RH  025%=      5-min Rain = 0
KHA3 171652Z 19009KT 22/01 A3002 RMK A01 T02170013  RH  026%=      5-min Rain = 0
KHA3 171653Z 20011KT 22/02 A3002 RMK A01 T02180015  RH  026%=      5-min Rain = 0
KHA3 171654Z 21010KT 22/01 A3002 RMK A01 T02190012  RH  025%=      5-min Rain = 0
KHA3 171655Z 22008KT 22/01 A3002 RMK A01 T02200009  RH  025%=      5-min Rain = 0
KHA3 171656Z 23011KT 22/01 A3002 RMK A01 T02200006  RH  024%=      5-min Rain = 0
KHA3 171657Z 22009KT 22/01 A3002 RMK A01 T02180007  RH  025%=      5-min Rain = 0
KHA3 171658Z 20007KT 22/01 A3002 RMK A01 T02180012  RH  026%=      5-min Rain = 0
KHA3 171659Z 17008KT 22/02 A3002 RMK A01 T02200017  RH  026%=      5-min Rain = 0
KHA3 171700Z 19007KT 22/02 A3002 RMK A01 T02230017  RH  026%=      5-min Rain = 0
KHA3 171701Z 18009KT 22/02 A3002 RMK A01 T02230018  RH  026%=      5-min Rain = 0
KHA3 171702Z 18009KT 22/02 A3002 RMK A01 T02240018  RH  026%=      5-min Rain = 0
KHA3 171703Z 17010KT 23/02 A3002 RMK A01 T02260018  RH  025%=      5-min Rain = 0
KHA3 171704Z 19008KT 23/02 A3002 RMK A01 T02260016  RH  025%=      5-min Rain = 0
KHA3 171705Z 18008KT 22/01 A3002 RMK A01 T02240013  RH  025%=      5-min Rain = 0
KHA3 171706Z 19009KT 22/01 A3002 RMK A01 T02240012  RH  025%=      5-min Rain = 0
KHA3 171707Z 17009KT 23/02 A3002 RMK A01 T02270016  RH  025%=      5-min Rain = 0
KHA3 171708Z 21009KT 23/01 A3002 RMK A01 T02280013  RH  024%=      5-min Rain = 0
KHA3 171709Z 22011KT 23/01 A3002 RMK A01 T02280014  RH  024%=      5-min Rain = 0
KHA3 171710Z 22007KT 23/01 A3002 RMK A01 T02260011  RH  024%=      5-min Rain = 0
KHA3 171711Z 20010KT 22/01 A3002 RMK A01 T02230012  RH  025%=      5-min Rain = 0
KHA3 171712Z 21009KT 22/01 A3002 RMK A01 T02220010  RH  025%=      5-min Rain = 0
KHA3 171713Z 22007KT 22/01 A3002 RMK A01 T02220008  RH  024%=      5-min Rain = 0
KHA3 171714Z 20009KT 22/01 A3002 RMK A01 T02220011  RH  025%=      5-min Rain = 0
KHA3 171715Z 21011KT 22/01 A3002 RMK A01 T02230008  RH  024%=      5-min Rain = 0
KHA3 171716Z 21007KT 22/01 A3002 RMK A01 T02240012  RH  025%=      5-min Rain = 0
KHA3 171717Z 18006KT 23/02 A3002 RMK A01 T02270018  RH  025%=      5-min Rain = 0
KHA3 171718Z 20008KT 23/02 A3001 RMK A01 T02300019  RH  025%=      5-min Rain = 0
KHA3 171719Z 19010KT 23/01 A3001 RMK A01 T02320012  RH  023%=      5-min Rain = 0
KHA3 171720Z 19011KT 23/01 A3001 RMK A01 T02300012  RH  024%=      5-min Rain = 0
KHA3 171721Z 18010KT 23/01 A3001 RMK A01 T02280008  RH  023%=      5-min Rain = 0
KHA3 171722Z 18011KT 23/01 A3001 RMK A01 T02270007  RH  023%=      5-min Rain = 0
KHA3 171723Z 18011KT 23/01 A3001 RMK A01 T02270009  RH  024%=      5-min Rain = 0
KHA3 171724Z 17008KT 23/01 A3001 RMK A01 T02270006  RH  023%=      5-min Rain = 0
KHA3 171725Z 18009KT 23/01 A3001 RMK A01 T02270012  RH  024%=      5-min Rain = 0
KHA3 171726Z 17008KT 23/01 A3002 RMK A01 T02280008  RH  023%=      5-min Rain = 0
KHA3 171727Z 20009KT 23/01 A3001 RMK A01 T02280012  RH  024%=      5-min Rain = 0
KHA3 171728Z 20008KT 23/01 A3001 RMK A01 T02300010  RH  023%=      5-min Rain = 0
KHA3 171729Z 18010KT 23/01 A3001 RMK A01 T02300008  RH  023%=      5-min Rain = 0
KHA3 171730Z 21011KT 23/00 A3001 RMK A01 T02320004  RH  022%=      5-min Rain = 0
KHA3 171731Z 20010KT 23/01 A3001 RMK A01 T02340005  RH  022%=      5-min Rain = 0
KHA3 171732Z 20011KT 23/01 A3001 RMK A01 T02330007  RH  022%=      5-min Rain = 0
KHA3 171733Z 19011KT 23/01 A3001 RMK A01 T02310008  RH  023%=      5-min Rain = 0
KHA3 171734Z 19010KT 23/01 A3001 RMK A01 T02280008  RH  023%=      5-min Rain = 0
KHA3 171735Z 20009KT 23/01 A3001 RMK A01 T02280011  RH  024%=      5-min Rain = 0
KHA3 171736Z 20006KT 23/01 A3001 RMK A01 T02290008  RH  023%=      5-min Rain = 0
KHA3 171737Z 17011KT 23/01 A3001 RMK A01 T02280011  RH  024%=      5-min Rain = 0
KHA3 171738Z 17012KT 23/01 A3001 RMK A01 T02290008  RH  023%=      5-min Rain = 0
KHA3 171739Z 17013KT 23/01 A3001 RMK A01 T02300005  RH  023%=      5-min Rain = 0
KHA3 171740Z 17011KT 23/01 A3001 RMK A01 T02300006  RH  023%=      5-min Rain = 0
KHA3 171741Z 19013KT 23/01 A3001 RMK A01 T02310006  RH  023%=      5-min Rain = 0
KHA3 171742Z 21011KT 23/01 A3001 RMK A01 T02320009  RH  023%=      5-min Rain = 0
KHA3 171743Z 20009KT 23/01 A3001 RMK A01 T02330010  RH  023%=      5-min Rain = 0
KHA3 171744Z 20009KT 24/01 A3001 RMK A01 T02350007  RH  022%=      5-min Rain = 0
KHA3 171745Z 19011KT 23/01 A3001 RMK A01 T02340009  RH  023%=      5-min Rain = 0
KHA3 171746Z 20010KT 23/01 A3001 RMK A01 T02340008  RH  023%=      5-min Rain = 0
KHA3 171747Z 19010G16KT 23/01 A30 RMK A01 T02320011  RH  023%=      5-min Rain = 0
KHA3 171748Z 19012KT 23/01 A30 RMK A01 T02320013  RH  024%=      5-min Rain = 0
KHA3 171749Z 21011KT 23/01 A30 RMK A01 T02330010  RH  023%=      5-min Rain = 0
KHA3 171750Z 20009KT 23/01 A30 RMK A01 T02330009  RH  023%=      5-min Rain = 0
KHA3 171751Z 20008KT 23/02 A30 RMK A01 T02340016  RH  024%=      5-min Rain = 0
KHA3 171752Z 18012KT 24/01 A30 RMK A01 T02370013  RH  023%=      5-min Rain = 0
KHA3 171753Z 19011KT 24/01 A30 RMK A01 T02360008  RH  022%=      5-min Rain = 0
KHA3 171754Z 18007KT 23/01 A30 RMK A01 T02340014  RH  024%=      5-min Rain = 0
KHA3 171755Z 17007KT 24/01 A30 RMK A01 T02380014  RH  023%=      5-min Rain = 0
KHA3 171756Z 20009KT 24/01 A30 RMK A01 T02400014  RH  023%=      5-min Rain = 0
KHA3 171757Z 20012KT 24/01 A30 RMK A01 T02410013  RH  022%=      5-min Rain = 0
KHA3 171758Z 20010KT 24/01 A30 RMK A01 T02390011  RH  022%=      5-min Rain = 0
KHA3 171759Z 22010KT 24/01 A30 RMK A01 T02360010  RH  023%=      5-min Rain = 0
KHA3 171800Z 20011KT 24/01 A30 RMK A01 T02350011  RH  023%=      5-min Rain = 0
KHA3 171801Z 20012KT 24/01 A30 RMK A01 T02360014  RH  023%=      5-min Rain = 0
KHA3 171802Z 20011KT 24/01 A30 RMK A01 T02370009  RH  022%=      5-min Rain = 0
KHA3 171803Z 19007KT 24/01 A30 RMK A01 T02370011  RH  023%=      5-min Rain = 0
KHA3 171804Z 18010KT 24/01 A2999 RMK A01 T02370012  RH  023%=      5-min Rain = 0
KHA3 171805Z 20013KT 24/01 A2999 RMK A01 T02410012  RH  022%=      5-min Rain = 0
KHA3 171806Z 19013KT 24/01 A2999 RMK A01 T02420011  RH  022%=      5-min Rain = 0
KHA3 171807Z 19011KT 24/01 A2999 RMK A01 T02420011  RH  022%=      5-min Rain = 0
KHA3 171808Z 18009KT 24/01 A2999 RMK A01 T02390008  RH  022%=      5-min Rain = 0
KHA3 171809Z 21008KT 24/01 A2999 RMK A01 T02370011  RH  023%=      5-min Rain = 0
KHA3 171810Z 20010G15KT 24/01 A2999 RMK A01 T02370012  RH  023%=      5-min Rain = 0
KHA3 171811Z 18011KT 24/01 A2999 RMK A01 T02380011  RH  022%=      5-min Rain = 0
KHA3 171812Z 17008KT 24/01 A2999 RMK A01 T02380012  RH  023%=      5-min Rain = 0
KHA3 171813Z 19009KT 24/01 A2998 RMK A01 T02380010  RH  022%=      5-min Rain = 0
KHA3 171814Z 20012KT 24/01 A2998 RMK A01 T02410008  RH  022%=      5-min Rain = 0
KHA3 171815Z 20012KT 24/01 A2998 RMK A01 T02400010  RH  022%=      5-min Rain = 0
KHA3 171816Z 19014KT 24/01 A2998 RMK A01 T02420012  RH  022%=      5-min Rain = 0
KHA3 171817Z 19013KT 24/01 A2998 RMK A01 T02410009  RH  022%=      5-min Rain = 0
KHA3 171818Z 20011KT 24/01 A2998 RMK A01 T02400008  RH  022%=      5-min Rain = 0
KHA3 171819Z 20010KT 24/01 A2998 RMK A01 T02400010  RH  022%=      5-min Rain = 0
KHA3 171820Z 18013KT 24/01 A2998 RMK A01 T02410011  RH  022%=      5-min Rain = 0
KHA3 171821Z 18011KT 24/01 A2998 RMK A01 T02410010  RH  022%=      5-min Rain = 0
KHA3 171822Z 17011KT 24/01 A2998 RMK A01 T02410010  RH  022%=      5-min Rain = 0
KHA3 171823Z 19009KT 24/01 A2998 RMK A01 T02410009  RH  022%=      5-min Rain = 0
KHA3 171824Z 20011G16KT 25/01 A2998 RMK A01 T02450009  RH  021%=      5-min Rain = 0
KHA3 171825Z 20009KT 25/01 A2998 RMK A01 T02490013  RH  021%=      5-min Rain = 0
KHA3 171826Z 20012KT 25/01 A2998 RMK A01 T02520013  RH  021%=      5-min Rain = 0
KHA3 171827Z 20012KT 25/01 A2998 RMK A01 T02500008  RH  020%=      5-min Rain = 0
KHA3 171828Z 17011KT 25/01 A2998 RMK A01 T02470007  RH  021%=      5-min Rain = 0
KHA3 171829Z 20008KT 25/01 A2998 RMK A01 T02450007  RH  021%=      5-min Rain = 0
KHA3 171830Z 22009KT 25/01 A2998 RMK A01 T02450005  RH  021%=      5-min Rain = 0
KHA3 171831Z 19012KT 25/01 A2997 RMK A01 T02460007  RH  021%=      5-min Rain = 0
KHA3 171832Z 20013KT 25/01 A2997 RMK A01 T02460006  RH  021%=      5-min Rain = 0
KHA3 171833Z 18011KT 25/01 A2997 RMK A01 T02450009  RH  021%=      5-min Rain = 0
KHA3 171834Z 18008KT 25/01 A2997 RMK A01 T02460009  RH  021%=      5-min Rain = 0
KHA3 171835Z 18008KT 25/01 A2997 RMK A01 T02450008  RH  021%=      5-min Rain = 0
KHA3 171836Z 20011KT 25/01 A2997 RMK A01 T02450013  RH  022%=      5-min Rain = 0
KHA3 171837Z 19012KT 25/01 A2997 RMK A01 T02490012  RH  021%=      5-min Rain = 0
KHA3 171838Z 19013KT 25/01 A2997 RMK A01 T02490010  RH  021%=      5-min Rain = 0
KHA3 171839Z 19013KT 25/01 A2997 RMK A01 T02480010  RH  021%=      5-min Rain = 0
KHA3 171840Z 21011KT 25/01 A2996 RMK A01 T02460009  RH  021%=      5-min Rain = 0
KHA3 171841Z 20013KT 25/01 A2996 RMK A01 T02450009  RH  021%=      5-min Rain = 0
KHA3 171842Z 21014KT 25/01 A2996 RMK A01 T02470012  RH  021%=      5-min Rain = 0
KHA3 171843Z 20011KT 25/01 A2996 RMK A01 T02480010  RH  021%=      5-min Rain = 0
KHA3 171844Z 19012KT 25/01 A2996 RMK A01 T02480014  RH  022%=      5-min Rain = 0
KHA3 171845Z 19011KT 25/01 A2996 RMK A01 T02490011  RH  021%=      5-min Rain = 0
KHA3 171846Z 20010KT 25/01 A2996 RMK A01 T02480014  RH  022%=      5-min Rain = 0
KHA3 171847Z 19011KT 25/01 A2996 RMK A01 T02500012  RH  021%=      5-min Rain = 0
KHA3 171848Z 19008KT 25/01 A2996 RMK A01 T02490012  RH  021%=      5-min Rain = 0
KHA3 171849Z 19009KT 25/02 A2996 RMK A01 T02510019  RH  022%=      5-min Rain = 0
KHA3 171850Z 16010KT 25/02 A2996 RMK A01 T02530018  RH  021%=      5-min Rain = 0
KHA3 171851Z 17011KT 26/02 A2996 RMK A01 T02560015  RH  021%=      5-min Rain = 0
KHA3 171852Z 17009KT 25/01 A2995 RMK A01 T02530010  RH  020%=      5-min Rain = 0
KHA3 171853Z 15008KT 25/01 A2995 RMK A01 T02500013  RH  021%=      5-min Rain = 0
KHA3 171854Z 19007G12KT 25/01 A2995 RMK A01 T02500014  RH  021%=      5-min Rain = 0
KHA3 171855Z 18011KT 25/01 A2995 RMK A01 T02510013  RH  021%=      5-min Rain = 0
KHA3 171856Z 18012KT 25/02 A2995 RMK A01 T02520017  RH  022%=      5-min Rain = 0
KHA3 171857Z 19011KT 25/02 A2995 RMK A01 T02540015  RH  021%=      5-min Rain = 0
KHA3 171858Z 19009KT 25/02 A2995 RMK A01 T02540018  RH  021%=      5-min Rain = 0
KHA3 171859Z 18010KT 26/01 A2995 RMK A01 T02560014  RH  021%=      5-min Rain = 0
KHA3 171900Z 20008KT 26/02 A2995 RMK A01 T02560016  RH  021%=      5-min Rain = 0
KHA3 171901Z 18007KT 26/02 A2994 RMK A01 T02570016  RH  021%=      5-min Rain = 0
KHA3 171902Z 20012KT 26/02 A2994 RMK A01 T02570018  RH  021%=      5-min Rain = 0
KHA3 171903Z 20012KT 26/02 A2994 RMK A01 T02560016  RH  021%=      5-min Rain = 0
KHA3 171904Z 21010KT 26/02 A2994 RMK A01 T02550016  RH  021%=      5-min Rain = 0
KHA3 171905Z 20010KT 25/02 A2994 RMK A01 T02540016  RH  021%=      5-min Rain = 0
KHA3 171906Z 21009KT 25/02 A2994 RMK A01 T02540015  RH  021%=      5-min Rain = 0
KHA3 171907Z 18012KT 25/02 A2994 RMK A01 T02530016  RH  021%=      5-min Rain = 0
KHA3 171908Z 17011KT 25/02 A2994 RMK A01 T02530019  RH  022%=      5-min Rain = 0
KHA3 171909Z 20013KT 25/02 A2994 RMK A01 T02540020  RH  022%=      5-min Rain = 0
KHA3 171910Z 20012KT 25/02 A2994 RMK A01 T02530018  RH  022%=      5-min Rain = 0
KHA3 171911Z 19009KT 25/02 A2994 RMK A01 T02530018  RH  022%=      5-min Rain = 0
KHA3 171912Z 20008KT 25/02 A2994 RMK A01 T02510016  RH  022%=      5-min Rain = 0
KHA3 171913Z 21006KT 25/02 A2994 RMK A01 T02500020  RH  022%=      5-min Rain = 0
KHA3 171914Z 20007KT 25/02 A2994 RMK A01 T02520021  RH  022%=      5-min Rain = 0
KHA3 171915Z 19009KT 25/02 A2993 RMK A01 T02540019  RH  022%=      5-min Rain = 0
KHA3 171916Z 18008G13KT 26/02 A2993 RMK A01 T02550016  RH  021%=      5-min Rain = 0
KHA3 171917Z 17010G15KT 26/02 A2993 RMK A01 T02550022  RH  022%=      5-min Rain = 0
KHA3 171918Z 17013KT 26/03 A2993 RMK A01 T02600025  RH  022%=      5-min Rain = 0
KHA3 171919Z 18013KT 26/02 A2993 RMK A01 T02600023  RH  022%=      5-min Rain = 0
KHA3 171920Z 20013KT 26/02 A2993 RMK A01 T02570024  RH  022%=      5-min Rain = 0
KHA3 171921Z 21010KT 26/02 A2993 RMK A01 T02560024  RH  022%=      5-min Rain = 0
KHA3 171922Z 20008KT 26/02 A2993 RMK A01 T02560020  RH  022%=      5-min Rain = 0
KHA3 171923Z 17010KT 26/03 A2993 RMK A01 T02560025  RH  022%=      5-min Rain = 0
KHA3 171924Z 19011KT 26/03 A2993 RMK A01 T02580026  RH  022%=      5-min Rain = 0
KHA3 171925Z 18009KT 26/03 A2993 RMK A01 T02600025  RH  022%=      5-min Rain = 0
KHA3 171926Z 18009KT 26/02 A2993 RMK A01 T02610020  RH  021%=      5-min Rain = 0
KHA3 171927Z 19008G13KT 26/02 A2993 RMK A01 T02600021  RH  021%=      5-min Rain = 0
KHA3 171928Z 20009KT 26/02 A2993 RMK A01 T02600023  RH  021%=      5-min Rain = 0
KHA3 171929Z 19007KT 26/02 A2993 RMK A01 T02600019  RH  021%=      5-min Rain = 0
KHA3 171930Z 18009KT 26/02 A2993 RMK A01 T02590023  RH  022%=      5-min Rain = 0
KHA3 171931Z 17012KT 26/02 A2993 RMK A01 T02600021  RH  021%=      5-min Rain = 0
KHA3 171932Z 18009KT 26/02 A2993 RMK A01 T02600018  RH  021%=      5-min Rain = 0
KHA3 171933Z 19011KT 26/02 A2993 RMK A01 T02590021  RH  021%=      5-min Rain = 0
KHA3 171934Z 19011KT 26/02 A2993 RMK A01 T02580021  RH  021%=      5-min Rain = 0
KHA3 171935Z 18011KT 26/02 A2993 RMK A01 T02570021  RH  022%=      5-min Rain = 0
KHA3 171936Z 18009KT 26/02 A2993 RMK A01 T02570018  RH  021%=      5-min Rain = 0
KHA3 171937Z 16006KT 26/02 A2993 RMK A01 T02560019  RH  021%=      5-min Rain = 0
KHA3 171938Z 19010KT 26/02 A2993 RMK A01 T02550024  RH  022%=      5-min Rain = 0
KHA3 171939Z 20012KT 26/03 A2992 RMK A01 T02590027  RH  022%=      5-min Rain = 0
KHA3 171940Z 21008KT 26/02 A2992 RMK A01 T02580024  RH  022%=      5-min Rain = 0
KHA3 171941Z 21007KT 26/03 A2992 RMK A01 T02570025  RH  022%=      5-min Rain = 0
KHA3 171942Z 17010KT 26/03 A2992 RMK A01 T02580027  RH  022%=      5-min Rain = 0
KHA3 171943Z 16006KT 26/02 A2992 RMK A01 T02590021  RH  021%=      5-min Rain = 0
KHA3 171944Z 16006KT 26/02 A2992 RMK A01 T02580023  RH  022%=      5-min Rain = 0
KHA3 171945Z 21008KT 26/03 A2992 RMK A01 T02590030  RH  023%=      5-min Rain = 0
KHA3 171946Z 20008KT 26/02 A2992 RMK A01 T02630023  RH  021%=      5-min Rain = 0
KHA3 171947Z 20011KT 26/03 A2991 RMK A01 T02630025  RH  021%=      5-min Rain = 0
KHA3 171948Z 17013KT 27/03 A2991 RMK A01 T02650026  RH  021%=      5-min Rain = 0
KHA3 171949Z 18013KT 27/02 A2991 RMK A01 T02650024  RH  021%=      5-min Rain = 0
KHA3 171950Z 19011KT 26/02 A2991 RMK A01 T02630021  RH  021%=      5-min Rain = 0
KHA3 171951Z 19009KT 26/02 A2991 RMK A01 T02600020  RH  021%=      5-min Rain = 0
KHA3 171952Z 18013KT 26/02 A2991 RMK A01 T02580024  RH  022%=      5-min Rain = 0
KHA3 171953Z 17011KT 26/02 A2991 RMK A01 T02580022  RH  022%=      5-min Rain = 0
KHA3 171954Z 16012KT 26/02 A2991 RMK A01 T02580024  RH  022%=      5-min Rain = 0
KHA3 171955Z 16011KT 26/03 A2991 RMK A01 T02600025  RH  022%=      5-min Rain = 0
KHA3 171956Z 19010KT 26/03 A2991 RMK A01 T02620027  RH  022%=      5-min Rain = 0
KHA3 171957Z 21012KT 26/03 A2991 RMK A01 T02630026  RH  021%=      5-min Rain = 0
KHA3 171958Z 21011KT 26/03 A2991 RMK A01 T02640026  RH  021%=      5-min Rain = 0
KHA3 171959Z 19011KT 26/03 A2991 RMK A01 T02630025  RH  021%=      5-min Rain = 0
KHA3 172000Z 19010KT 26/03 A2991 RMK A01 T02640026  RH  021%=      5-min Rain = 0
KHA3 172001Z 17012KT 26/03 A2991 RMK A01 T02640026  RH  021%=      5-min Rain = 0
KHA3 172002Z 17011KT 26/02 A2991 RMK A01 T02630023  RH  021%=      5-min Rain = 0
KHA3 172003Z 17012KT 26/02 A2991 RMK A01 T02630024  RH  021%=      5-min Rain = 0
KHA3 172004Z 19011KT 26/02 A299 RMK A01 T02630024  RH  021%=      5-min Rain = 0
KHA3 172005Z 20008KT 26/02 A299 RMK A01 T02630022  RH  021%=      5-min Rain = 0
KHA3 172006Z 20007KT 26/03 A299 RMK A01 T02600025  RH  022%=      5-min Rain = 0
KHA3 172007Z 20008KT 26/03 A299 RMK A01 T02610026  RH  022%=      5-min Rain = 0
KHA3 172008Z 19009G14KT 26/03 A299 RMK A01 T02640025  RH  021%=      5-min Rain = 0
KHA3 172009Z 15012KT 27/03 A299 RMK A01 T02650025  RH  021%=      5-min Rain = 0
KHA3 172010Z 16012KT 27/03 A299 RMK A01 T02650027  RH  021%=      5-min Rain = 0
KHA3 172011Z 16009KT 27/02 A299 RMK A01 T02650023  RH  021%=      5-min Rain = 0
KHA3 172012Z 18008KT 26/02 A299 RMK A01 T02630023  RH  021%=      5-min Rain = 0
KHA3 172013Z 18009KT 26/02 A299 RMK A01 T02620022  RH  021%=      5-min Rain = 0
KHA3 172014Z 18012G17KT 26/03 A299 RMK A01 T02630025  RH  021%=      5-min Rain = 0
KHA3 172015Z 19010G18KT 27/02 A299 RMK A01 T02660023  RH  021%=      5-min Rain = 0
KHA3 172016Z 17011KT 27/03 A299 RMK A01 T02660026  RH  021%=      5-min Rain = 0
KHA3 172017Z 15012G17KT 27/02 A299 RMK A01 T02670024  RH  021%=      5-min Rain = 0
KHA3 172018Z 15012KT 27/02 A299 RMK A01 T02690021  RH  020%=      5-min Rain = 0
KHA3 172019Z 15013KT 27/02 A299 RMK A01 T02670019  RH  020%=      5-min Rain = 0
KHA3 172020Z 15013KT 27/02 A299 RMK A01 T02650021  RH  020%=      5-min Rain = 0
KHA3 172021Z 16011KT 26/02 A2989 RMK A01 T02640018  RH  020%=      5-min Rain = 0
KHA3 172022Z 16014KT 26/02 A299 RMK A01 T02640020  RH  020%=      5-min Rain = 0
KHA3 172023Z 15016KT 26/01 A2989 RMK A01 T02640014  RH  020%=      5-min Rain = 0
KHA3 172024Z 16013KT 26/01 A2989 RMK A01 T02640013  RH  019%=      5-min Rain = 0
KHA3 172025Z 16011KT 27/02 A2989 RMK A01 T02660018  RH  020%=      5-min Rain = 0
KHA3 172026Z 17011KT 27/02 A2989 RMK A01 T02690020  RH  020%=      5-min Rain = 0
KHA3 172027Z 19013KT 27/02 A2989 RMK A01 T02710021  RH  020%=      5-min Rain = 0
KHA3 172028Z 19015KT 27/01 A2989 RMK A01 T02720014  RH  019%=      5-min Rain = 0
KHA3 172029Z 19015KT 27/01 A2989 RMK A01 T02690012  RH  019%=      5-min Rain = 0
KHA3 172030Z 20010KT 27/01 A2989 RMK A01 T02670013  RH  019%=      5-min Rain = 0
KHA3 172031Z 18011G17KT 27/02 A2989 RMK A01 T02680018  RH  020%=      5-min Rain = 0
KHA3 172032Z 17016KT 27/01 A2989 RMK A01 T02690011  RH  019%=      5-min Rain = 0
KHA3 172033Z 18013KT 27/01 A2989 RMK A01 T02690011  RH  019%=      5-min Rain = 0
KHA3 172034Z 18013KT 27/01 A2989 RMK A01 T02680012  RH  019%=      5-min Rain = 0
KHA3 172035Z 18014KT 27/01 A2989 RMK A01 T02670011  RH  019%=      5-min Rain = 0
KHA3 172036Z 19015KT 27/01 A2989 RMK A01 T02690010  RH  019%=      5-min Rain = 0
KHA3 172037Z 19014KT 27/01 A2989 RMK A01 T02700008  RH  018%=      5-min Rain = 0
KHA3 172038Z 20013KT 27/01 A2989 RMK A01 T02700007  RH  018%=      5-min Rain = 0
KHA3 172039Z 20014KT 27/01 A2989 RMK A01 T02700012  RH  019%=      5-min Rain = 0
KHA3 172040Z 20013KT 27/01 A2989 RMK A01 T02700012  RH  019%=      5-min Rain = 0
KHA3 172041Z 20010KT 27/01 A2989 RMK A01 T02710014  RH  019%=      5-min Rain = 0
KHA3 172042Z 17011KT 27/02 A2989 RMK A01 T02710016  RH  019%=      5-min Rain = 0
KHA3 172043Z 17013G18KT 27/01 A2989 RMK A01 T02710014  RH  019%=      5-min Rain = 0
KHA3 172044Z 16016KT 27/01 A2989 RMK A01 T02730009  RH  018%=      5-min Rain = 0
KHA3 172045Z 16016G21KT 27/01 A2989 RMK A01 T02720012  RH  018%=      5-min Rain = 0
KHA3 172046Z 17013KT 27/01 A2989 RMK A01 T02710013  RH  019%=      5-min Rain = 0
KHA3 172047Z 18012KT 27/01 A2989 RMK A01 T02710012  RH  019%=      5-min Rain = 0
KHA3 172048Z 16013KT 27/02 A2989 RMK A01 T02720015  RH  019%=      5-min Rain = 0
KHA3 172049Z 17013KT 27/01 A2989 RMK A01 T02730013  RH  019%=      5-min Rain = 0
KHA3 172050Z 17011KT 27/02 A2988 RMK A01 T02720015  RH  019%=      5-min Rain = 0
KHA3 172051Z 17013KT 27/01 A2988 RMK A01 T02720014  RH  019%=      5-min Rain = 0
KHA3 172052Z 16010KT 27/01 A2988 RMK A01 T02710012  RH  019%=      5-min Rain = 0
KHA3 172053Z 16009KT 27/01 A2988 RMK A01 T02690012  RH  019%=      5-min Rain = 0
KHA3 172054Z 17012G17KT 27/01 A2988 RMK A01 T02690013  RH  019%=      5-min Rain = 0
KHA3 172055Z 18011KT 27/01 A2988 RMK A01 T02700014  RH  019%=      5-min Rain = 0
KHA3 172056Z 20011KT 27/02 A2988 RMK A01 T02710016  RH  019%=      5-min Rain = 0
KHA3 172057Z 20012KT 27/02 A2988 RMK A01 T02710015  RH  019%=      5-min Rain = 0
KHA3 172058Z 18013KT 27/01 A2988 RMK A01 T02710014  RH  019%=      5-min Rain = 0
KHA3 172059Z 17012KT 27/01 A2988 RMK A01 T02700012  RH  019%=      5-min Rain = 0
KHA3 172100Z 18014KT 27/01 A2988 RMK A01 T02690013  RH  019%=      5-min Rain = 0
KHA3 172101Z 18015KT 27/01 A2988 RMK A01 T02710013  RH  019%=      5-min Rain = 0
KHA3 172102Z 19015KT 27/01 A2988 RMK A01 T02720010  RH  018%=      5-min Rain = 0
KHA3 172103Z 20013KT 27/01 A2988 RMK A01 T02710011  RH  018%=      5-min Rain = 0
KHA3 172104Z 21013KT 27/01 A2988 RMK A01 T02700011  RH  019%=      5-min Rain = 0
KHA3 172105Z 19012KT 27/01 A2988 RMK A01 T02700011  RH  019%=      5-min Rain = 0
KHA3 172106Z 19012G17KT 27/01 A2988 RMK A01 T02700012  RH  019%=      5-min Rain = 0
KHA3 172107Z 19012KT 27/01 A2988 RMK A01 T02710012  RH  019%=      5-min Rain = 0
KHA3 172108Z 18011KT 27/01 A2988 RMK A01 T02700014  RH  019%=      5-min Rain = 0
KHA3 172109Z 17014KT 27/02 A2988 RMK A01 T02720016  RH  019%=      5-min Rain = 0
KHA3 172110Z 17013KT 27/01 A2988 RMK A01 T02730014  RH  019%=      5-min Rain = 0
KHA3 172111Z 18011KT 27/01 A2988 RMK A01 T02720013  RH  019%=      5-min Rain = 0
KHA3 172112Z 17010KT 27/01 A2988 RMK A01 T02720012  RH  018%=      5-min Rain = 0
KHA3 172113Z 19013G18KT 27/01 A2988 RMK A01 T02710014  RH  019%=      5-min Rain = 0
KHA3 172114Z 19013KT 27/01 A2988 RMK A01 T02710010  RH  018%=      5-min Rain = 0
KHA3 172115Z 18010KT 27/01 A2988 RMK A01 T02710010  RH  018%=      5-min Rain = 0
KHA3 172116Z 18012KT 27/01 A2988 RMK A01 T02700011  RH  019%=      5-min Rain = 0
KHA3 172117Z 17013KT 27/01 A2988 RMK A01 T02700007  RH  018%=      5-min Rain = 0
KHA3 172118Z 17012KT 27/01 A2988 RMK A01 T02710009  RH  018%=      5-min Rain = 0
KHA3 172119Z 19011KT 27/01 A2988 RMK A01 T02720014  RH  019%=      5-min Rain = 0
KHA3 172120Z 19012KT 27/02 A2988 RMK A01 T02730015  RH  019%=      5-min Rain = 0
KHA3 172121Z 19010KT 27/01 A2988 RMK A01 T02730014  RH  019%=      5-min Rain = 0
KHA3 172122Z 19010KT 27/01 A2988 RMK A01 T02720014  RH  019%=      5-min Rain = 0
KHA3 172123Z 18013KT 27/01 A2988 RMK A01 T02720010  RH  018%=      5-min Rain = 0
KHA3 172124Z 17014KT 27/01 A2988 RMK A01 T02720010  RH  018%=      5-min Rain = 0
KHA3 172125Z 18014KT 27/01 A2988 RMK A01 T02720005  RH  018%=      5-min Rain = 0
KHA3 172126Z 18013KT 27/01 A2988 RMK A01 T02710006  RH  018%=      5-min Rain = 0
KHA3 172127Z 18011KT 27/01 A2987 RMK A01 T02690006  RH  018%=      5-min Rain = 0
KHA3 172128Z 19013KT 27/01 A2987 RMK A01 T02690006  RH  018%=      5-min Rain = 0
KHA3 172129Z 18013KT 27/01 A2987 RMK A01 T02690009  RH  018%=      5-min Rain = 0
KHA3 172130Z 18013KT 27/01 A2987 RMK A01 T02720007  RH  018%=      5-min Rain = 0
KHA3 172131Z 19013KT 27/01 A2987 RMK A01 T02710006  RH  018%=      5-min Rain = 0
KHA3 172132Z 17010KT 27/01 A2987 RMK A01 T02720012  RH  019%=      5-min Rain = 0
KHA3 172133Z 16008KT 27/01 A2987 RMK A01 T02740007  RH  018%=      5-min Rain = 0
KHA3 172134Z 18010KT 27/01 A2987 RMK A01 T02730011  RH  018%=      5-min Rain = 0
KHA3 172135Z 16012KT 27/01 A2987 RMK A01 T02740012  RH  018%=      5-min Rain = 0
KHA3 172136Z 16013G18KT 27/01 A2987 RMK A01 T02740013  RH  018%=      5-min Rain = 0
KHA3 172137Z 16014KT 28/01 A2987 RMK A01 T02750009  RH  018%=      5-min Rain = 0
KHA3 172138Z 17015KT 27/01 A2987 RMK A01 T02730007  RH  018%=      5-min Rain = 0
KHA3 172139Z 16012KT 27/01 A2987 RMK A01 T02710008  RH  018%=      5-min Rain = 0
KHA3 172140Z 16011KT 27/01 A2987 RMK A01 T02710008  RH  018%=      5-min Rain = 0
KHA3 172141Z 16010KT 27/01 A2987 RMK A01 T02710010  RH  018%=      5-min Rain = 0
KHA3 172142Z 14012KT 27/01 A2987 RMK A01 T02710012  RH  019%=      5-min Rain = 0
KHA3 172143Z 16016G22KT 27/01 A2987 RMK A01 T02710013  RH  019%=      5-min Rain = 0
KHA3 172144Z 18016KT 27/01 A2987 RMK A01 T02720014  RH  019%=      5-min Rain = 0
KHA3 172145Z 18014KT 27/01 A2987 RMK A01 T02730012  RH  018%=      5-min Rain = 0
KHA3 172146Z 19013KT 27/01 A2987 RMK A01 T02720013  RH  019%=      5-min Rain = 0
KHA3 172147Z 18012KT 27/01 A2987 RMK A01 T02710012  RH  019%=      5-min Rain = 0
KHA3 172148Z 17011KT 27/01 A2987 RMK A01 T02700010  RH  018%=      5-min Rain = 0
KHA3 172149Z 18010KT 27/01 A2987 RMK A01 T02690009  RH  018%=      5-min Rain = 0
KHA3 172150Z 19008KT 27/01 A2987 RMK A01 T02690010  RH  019%=      5-min Rain = 0
KHA3 172151Z 17009KT 27/01 A2987 RMK A01 T02700012  RH  019%=      5-min Rain = 0
KHA3 172152Z 17011G16KT 27/02 A2987 RMK A01 T02710015  RH  019%=      5-min Rain = 0
KHA3 172153Z 17014KT 27/01 A2987 RMK A01 T02730014  RH  019%=      5-min Rain = 0
KHA3 172154Z 15012KT 27/01 A2987 RMK A01 T02730014  RH  019%=      5-min Rain = 0
KHA3 172155Z 15012KT 27/01 A2987 RMK A01 T02720012  RH  019%=      5-min Rain = 0
KHA3 172156Z 16012KT 27/01 A2987 RMK A01 T02710014  RH  019%=      5-min Rain = 0
KHA3 172157Z 18012KT 27/02 A2987 RMK A01 T02720016  RH  019%=      5-min Rain = 0
KHA3 172158Z 18014KT 27/02 A2987 RMK A01 T02730015  RH  019%=      5-min Rain = 0
KHA3 172159Z 18015KT 27/01 A2987 RMK A01 T02730011  RH  018%=      5-min Rain = 0
KHA3 172200Z 17014KT 27/01 A2987 RMK A01 T02710010  RH  018%=      5-min Rain = 0
KHA3 172201Z 18014KT 27/01 A2987 RMK A01 T02700010  RH  018%=      5-min Rain = 0
KHA3 172202Z 19014KT 27/01 A2986 RMK A01 T02700012  RH  019%=      5-min Rain = 0
KHA3 172203Z 17014KT 27/01 A2987 RMK A01 T02700010  RH  018%=      5-min Rain = 0
KHA3 172204Z 16013KT 27/01 A2987 RMK A01 T02700010  RH  018%=      5-min Rain = 0
KHA3 172205Z 16010KT 27/01 A2987 RMK A01 T02700012  RH  019%=      5-min Rain = 0
KHA3 172206Z 17008KT 27/02 A2987 RMK A01 T02710016  RH  019%=      5-min Rain = 0
KHA3 172207Z 16008KT 27/01 A2987 RMK A01 T02730014  RH  019%=      5-min Rain = 0
KHA3 172208Z 15011KT 27/01 A2987 RMK A01 T02740014  RH  019%=      5-min Rain = 0
KHA3 172209Z 15013KT 27/01 A2987 RMK A01 T02740008  RH  018%=      5-min Rain = 0
KHA3 172210Z 15014KT 27/01 A2987 RMK A01 T02720009  RH  018%=      5-min Rain = 0
KHA3 172211Z 15013KT 27/01 A2986 RMK A01 T02710011  RH  018%=      5-min Rain = 0
KHA3 172212Z 16014KT 27/01 A2986 RMK A01 T02710014  RH  019%=      5-min Rain = 0
KHA3 172213Z 17011KT 27/02 A2986 RMK A01 T02710015  RH  019%=      5-min Rain = 0
KHA3 172214Z 17012KT 27/01 A2986 RMK A01 T02720014  RH  019%=      5-min Rain = 0
KHA3 172215Z 17013KT 27/01 A2986 RMK A01 T02720013  RH  019%=      5-min Rain = 0
KHA3 172216Z 18012KT 27/01 A2986 RMK A01 T02720014  RH  019%=      5-min Rain = 0
KHA3 172217Z 19013KT 27/02 A2986 RMK A01 T02710015  RH  019%=      5-min Rain = 0
KHA3 172218Z 19014KT 27/01 A2986 RMK A01 T02710014  RH  019%=      5-min Rain = 0
KHA3 172219Z 19012KT 27/01 A2986 RMK A01 T02700014  RH  019%=      5-min Rain = 0
KHA3 172220Z 19010KT 27/02 A2986 RMK A01 T02700015  RH  019%=      5-min Rain = 0
KHA3 172221Z 18012KT 27/02 A2986 RMK A01 T02710016  RH  019%=      5-min Rain = 0
KHA3 172222Z 17012KT 27/01 A2986 RMK A01 T02710012  RH  019%=      5-min Rain = 0
KHA3 172223Z 17013KT 27/01 A2986 RMK A01 T02710013  RH  019%=      5-min Rain = 0
KHA3 172224Z 18012KT 27/02 A2986 RMK A01 T02700015  RH  019%=      5-min Rain = 0
KHA3 172225Z 19011KT 27/01 A2986 RMK A01 T02700014  RH  019%=      5-min Rain = 0
KHA3 172226Z 18012KT 27/02 A2986 RMK A01 T02700016  RH  019%=      5-min Rain = 0
KHA3 172227Z 18013KT 27/01 A2986 RMK A01 T02700014  RH  019%=      5-min Rain = 0
KHA3 172228Z 17011KT 27/01 A2986 RMK A01 T02700014  RH  019%=      5-min Rain = 0
KHA3 172229Z 17012KT 27/02 A2986 RMK A01 T02690015  RH  019%=      5-min Rain = 0
KHA3 172230Z 16010KT 27/02 A2986 RMK A01 T02700017  RH  019%=      5-min Rain = 0
KHA3 172231Z 16010KT 27/02 A2986 RMK A01 T02700017  RH  019%=      5-min Rain = 0
KHA3 172232Z 18012KT 27/01 A2986 RMK A01 T02700014  RH  019%=      5-min Rain = 0
KHA3 172233Z 17010KT 27/01 A2986 RMK A01 T02690014  RH  019%=      5-min Rain = 0
KHA3 172234Z 17009KT 27/02 A2986 RMK A01 T02680017  RH  020%=      5-min Rain = 0
KHA3 172235Z 17012KT 27/02 A2986 RMK A01 T02690018  RH  020%=      5-min Rain = 0
KHA3 172236Z 18015KT 27/01 A2986 RMK A01 T02700013  RH  019%=      5-min Rain = 0
KHA3 172237Z 17014KT 27/01 A2986 RMK A01 T02690011  RH  019%=      5-min Rain = 0
KHA3 172238Z 17013KT 27/01 A2986 RMK A01 T02680011  RH  019%=      5-min Rain = 0
KHA3 172239Z 17013KT 27/01 A2986 RMK A01 T02680011  RH  019%=      5-min Rain = 0
KHA3 172240Z 16012KT 27/01 A2986 RMK A01 T02670012  RH  019%=      5-min Rain = 0
KHA3 172241Z 16010KT 27/01 A2986 RMK A01 T02670013  RH  019%=      5-min Rain = 0
KHA3 172242Z 15010KT 27/02 A2986 RMK A01 T02670015  RH  019%=      5-min Rain = 0
KHA3 172243Z 15010KT 27/02 A2986 RMK A01 T02670015  RH  020%=      5-min Rain = 0
KHA3 172244Z 16013KT 27/02 A2986 RMK A01 T02670015  RH  019%=      5-min Rain = 0
KHA3 172245Z 16011KT 27/02 A2986 RMK A01 T02670015  RH  019%=      5-min Rain = 0
KHA3 172246Z 16010KT 27/01 A2986 RMK A01 T02670014  RH  019%=      5-min Rain = 0
KHA3 172247Z 16009KT 27/01 A2986 RMK A01 T02670014  RH  019%=      5-min Rain = 0
KHA3 172248Z 17011KT 27/02 A2986 RMK A01 T02670015  RH  019%=      5-min Rain = 0
KHA3 172249Z 17012KT 27/01 A2985 RMK A01 T02670013  RH  019%=      5-min Rain = 0
KHA3 172250Z 17012KT 27/01 A2985 RMK A01 T02660012  RH  019%=      5-min Rain = 0
KHA3 172251Z 17015KT 27/01 A2985 RMK A01 T02660010  RH  019%=      5-min Rain = 0
KHA3 172252Z 16016KT 27/01 A2985 RMK A01 T02650006  RH  018%=      5-min Rain = 0
KHA3 172253Z 16015KT 26/00 A2985 RMK A01 T02640004  RH  018%=      5-min Rain = 0
KHA3 172254Z 15011KT 26/01 A2985 RMK A01 T02640005  RH  019%=      5-min Rain = 0
KHA3 172255Z 14012KT 26/01 A2985 RMK A01 T02630005  RH  019%=      5-min Rain = 0
KHA3 172256Z 14013KT 26/00 A2985 RMK A01 T02630003  RH  018%=      5-min Rain = 0
KHA3 172257Z 14010KT 26/00 A2985 RMK A01 T02620001  RH  018%=      5-min Rain = 0
KHA3 172258Z 14009G14KT 26/00 A2985 RMK A01 T02610003  RH  018%=      5-min Rain = 0
KHA3 172259Z 14012KT 26/00 A2985 RMK A01 T02610004  RH  019%=      5-min Rain = 0
KHA3 172300Z 15013KT 26/00 A2985 RMK A01 T02610001  RH  018%=      5-min Rain = 0
KHA3 172301Z 14012KT 26/00 A2985 RMK A01 T02610000  RH  018%=      5-min Rain = 0
KHA3 172302Z 15012KT 26/00 A2985 RMK A01 T02600001  RH  018%=      5-min Rain = 0
KHA3 172303Z 14014KT 26/00 A2985 RMK A01 T026000-0  RH  018%=      5-min Rain = 0
KHA3 172304Z 14012KT 26/00 A2985 RMK A01 T02600000  RH  018%=      5-min Rain = 0
KHA3 172305Z 14013KT 26/00 A2985 RMK A01 T02590002  RH  019%=      5-min Rain = 0
KHA3 172306Z 14011KT 26/00 A2985 RMK A01 T02590001  RH  018%=      5-min Rain = 0
KHA3 172307Z 14014KT 26/M00 A2985 RMK A01 T02581001  RH  018%=      5-min Rain = 0
KHA3 172308Z 14014KT 26/M00 A2985 RMK A01 T02581002  RH  018%=      5-min Rain = 0
KHA3 172309Z 14014KT 26/M00 A2985 RMK A01 T02571002  RH  018%=      5-min Rain = 0
KHA3 172310Z 14012KT 26/M00 A2985 RMK A01 T02571002  RH  018%=      5-min Rain = 0
KHA3 172311Z 14013KT 26/M00 A2985 RMK A01 T02561003  RH  018%=      5-min Rain = 0
KHA3 172312Z 14012KT 26/M00 A2985 RMK A01 T02561002  RH  018%=      5-min Rain = 0
KHA3 172313Z 15012KT 26/00 A2985 RMK A01 T02560001  RH  019%=      5-min Rain = 0
KHA3 172314Z 15013KT 26/00 A2985 RMK A01 T02550000  RH  019%=      5-min Rain = 0
KHA3 172315Z 15010KT 26/00 A2985 RMK A01 T02550002  RH  019%=      5-min Rain = 0
KHA3 172316Z 15007KT 26/01 A2985 RMK A01 T02550005  RH  019%=      5-min Rain = 0
KHA3 172317Z 15010KT 25/01 A2985 RMK A01 T02540005  RH  020%=      5-min Rain = 0
KHA3 172318Z 15012KT 25/00 A2985 RMK A01 T02530004  RH  019%=      5-min Rain = 0
KHA3 172319Z 16012KT 25/00 A2985 RMK A01 T02530003  RH  019%=      5-min Rain = 0
KHA3 172320Z 15011KT 25/00 A2985 RMK A01 T02530003  RH  019%=      5-min Rain = 0
KHA3 172321Z 15013KT 25/00 A2985 RMK A01 T02530004  RH  019%=      5-min Rain = 0
KHA3 172322Z 15014KT 25/00 A2985 RMK A01 T02520002  RH  019%=      5-min Rain = 0
KHA3 172323Z 14013KT 25/00 A2985 RMK A01 T02520001  RH  019%=      5-min Rain = 0
KHA3 172324Z 15011KT 25/00 A2985 RMK A01 T02510002  RH  020%=      5-min Rain = 0
KHA3 172325Z 15012KT 25/00 A2985 RMK A01 T02490002  RH  020%=      5-min Rain = 0
KHA3 172326Z 15010KT 25/00 A2985 RMK A01 T02480000  RH  020%=      5-min Rain = 0
KHA3 172327Z 15009KT 25/00 A2985 RMK A01 T02470001  RH  020%=      5-min Rain = 0
KHA3 172328Z 15009KT 25/00 A2985 RMK A01 T02460002  RH  020%=      5-min Rain = 0
KHA3 172329Z 14009KT 24/00 A2985 RMK A01 T02440002  RH  020%=      5-min Rain = 0
KHA3 172330Z 15010KT 24/00 A2985 RMK A01 T02440001  RH  020%=      5-min Rain = 0
KHA3 172331Z 15009KT 24/00 A2985 RMK A01 T02430001  RH  020%=      5-min Rain = 0
KHA3 172332Z 15011KT 24/00 A2985 RMK A01 T02440002  RH  020%=      5-min Rain = 0
KHA3 172333Z 14009KT 24/00 A2985 RMK A01 T02440001  RH  020%=      5-min Rain = 0
KHA3 172334Z 15010KT 24/00 A2985 RMK A01 T02430002  RH  020%=      5-min Rain = 0
KHA3 172335Z 14011KT 24/00 A2985 RMK A01 T02430001  RH  020%=      5-min Rain = 0
KHA3 172336Z 14010KT 24/00 A2985 RMK A01 T02430002  RH  020%=      5-min Rain = 0
KHA3 172337Z 15010KT 24/00 A2985 RMK A01 T02420002  RH  020%=      5-min Rain = 0
KHA3 172338Z 15010KT 24/00 A2985 RMK A01 T02420002  RH  021%=      5-min Rain = 0
KHA3 172339Z 15011KT 24/00 A2985 RMK A01 T02410003  RH  021%=      5-min Rain = 0
KHA3 172340Z 15010KT 24/00 A2985 RMK A01 T02410002  RH  021%=      5-min Rain = 0
KHA3 172341Z 15010KT 24/00 A2985 RMK A01 T02400002  RH  021%=      5-min Rain = 0
KHA3 172342Z 15010KT 24/00 A2985 RMK A01 T02390002  RH  021%=      5-min Rain = 0
KHA3 172343Z 15011KT 24/00 A2985 RMK A01 T02390002  RH  021%=      5-min Rain = 0
KHA3 172344Z 15012KT 24/00 A2985 RMK A01 T02380001  RH  021%=      5-min Rain = 0
KHA3 172345Z 15012KT 24/00 A2985 RMK A01 T02380000  RH  021%=      5-min Rain = 0
KHA3 172346Z 14010KT 24/00 A2985 RMK A01 T02380000  RH  021%=      5-min Rain = 0
KHA3 172347Z 14010KT 24/00 A2985 RMK A01 T02380001  RH  021%=      5-min Rain = 0
KHA3 172348Z 15011KT 24/00 A2984 RMK A01 T02370000  RH  021%=      5-min Rain = 0
KHA3 172349Z 14010KT 24/00 A2984 RMK A01 T02370000  RH  021%=      5-min Rain = 0
KHA3 172350Z 15010KT 24/00 A2984 RMK A01 T023600-0  RH  021%=      5-min Rain = 0
KHA3 172351Z 15010KT 24/00 A2984 RMK A01 T023600-0  RH  021%=      5-min Rain = 0
KHA3 172352Z 14009KT 24/00 A2984 RMK A01 T02350000  RH  021%=      5-min Rain = 0
KHA3 172353Z 15009KT 23/00 A2984 RMK A01 T02330000  RH  021%=      5-min Rain = 0
KHA3 172354Z 14010KT 23/00 A2985 RMK A01 T023200-0  RH  021%=      5-min Rain = 0
KHA3 172355Z 14009KT 23/00 A2985 RMK A01 T023100-0  RH  022%=      5-min Rain = 0
KHA3 172356Z 14009KT 23/00 A2985 RMK A01 T02300000  RH  022%=      5-min Rain = 0
KHA3 172357Z 14009KT 23/M00 A2985 RMK A01 T02291001  RH  022%=      5-min Rain = 0
KHA3 172358Z 14009KT 23/M00 A2985 RMK A01 T02291001  RH  022%=      5-min Rain = 0
KHA3 172359Z 14010KT 23/M00 A2985 RMK A01 T02301002  RH  021%=      5-min Rain = 0
KHA3 180000Z 14010KT 23/M00 A2984 RMK A01 T02311002  RH  021%=      5-min Rain = 0
KHA3 180001Z 14009KT 23/M00 A2984 RMK A01 T02311002  RH  021%=      5-min Rain = 0
KHA3 180002Z 14008KT 23/M00 A2984 RMK A01 T02311002  RH  021%=      5-min Rain = 0
KHA3 180003Z 14009KT 23/M00 A2984 RMK A01 T02311002  RH  021%=      5-min Rain = 0
KHA3 180004Z 14008KT 23/M00 A2984 RMK A01 T02301003  RH  021%=      5-min Rain = 0
KHA3 180005Z 14010KT 23/M00 A2984 RMK A01 T02301003  RH  021%=      5-min Rain = 0
KHA3 180006Z 14008KT 23/M00 A2984 RMK A01 T02291003  RH  021%=      5-min Rain = 0
KHA3 180007Z 14008KT 23/M00 A2984 RMK A01 T02291003  RH  021%=      5-min Rain = 0
KHA3 180008Z 14009KT 23/M00 A2984 RMK A01 T02281003  RH  022%=      5-min Rain = 0
KHA3 180009Z 13009KT 23/M00 A2984 RMK A01 T02271004  RH  022%=      5-min Rain = 0
KHA3 180010Z 14008KT 23/M00 A2984 RMK A01 T02271004  RH  022%=      5-min Rain = 0
KHA3 180011Z 14008KT 23/M00 A2984 RMK A01 T02261004  RH  022%=      5-min Rain = 0
KHA3 180012Z 14009KT 23/M00 A2984 RMK A01 T02251004  RH  022%=      5-min Rain = 0
KHA3 180013Z 14008KT 22/M01 A2984 RMK A01 T02241005  RH  022%=      5-min Rain = 0
KHA3 180014Z 14009KT 22/M01 A2984 RMK A01 T02241005  RH  022%=      5-min Rain = 0
KHA3 180015Z 14008KT 22/M00 A2984 RMK A01 T02231004  RH  022%=      5-min Rain = 0
KHA3 180016Z 14007KT 22/M01 A2984 RMK A01 T02221005  RH  022%=      5-min Rain = 0
KHA3 180017Z 14009KT 22/M00 A2985 RMK A01 T02211004  RH  022%=      5-min Rain = 0
KHA3 180018Z 14008KT 22/M01 A2985 RMK A01 T02211005  RH  022%=      5-min Rain = 0
KHA3 180019Z 14008KT 22/M01 A2985 RMK A01 T02211005  RH  022%=      5-min Rain = 0
KHA3 180020Z 14008KT 22/M01 A2985 RMK A01 T02201005  RH  022%=      5-min Rain = 0
KHA3 180021Z 14008KT 22/M01 A2985 RMK A01 T02191005  RH  022%=      5-min Rain = 0
KHA3 180022Z 14009KT 22/M01 A2985 RMK A01 T02191005  RH  022%=      5-min Rain = 0
KHA3 180023Z 14008KT 22/M01 A2985 RMK A01 T02191005  RH  022%=      5-min Rain = 0
KHA3 180024Z 14008KT 22/M01 A2985 RMK A01 T02181005  RH  023%=      5-min Rain = 0
KHA3 180025Z 14008KT 22/M01 A2985 RMK A01 T02181005  RH  023%=      5-min Rain = 0
KHA3 180026Z 14010KT 22/M01 A2985 RMK A01 T02171005  RH  023%=      5-min Rain = 0
KHA3 180027Z 14009KT 22/M01 A2985 RMK A01 T02171006  RH  023%=      5-min Rain = 0
KHA3 180028Z 14009KT 22/M01 A2985 RMK A01 T02181006  RH  023%=      5-min Rain = 0
KHA3 180029Z 14009KT 22/M01 A2985 RMK A01 T02171005  RH  023%=      5-min Rain = 0
KHA3 180030Z 14009KT 22/M01 A2985 RMK A01 T02171006  RH  023%=      5-min Rain = 0
KHA3 180031Z 14010KT 22/M01 A2985 RMK A01 T02161007  RH  023%=      5-min Rain = 0
KHA3 180032Z 14010KT 22/M01 A2985 RMK A01 T02161007  RH  022%=      5-min Rain = 0
KHA3 180033Z 14010KT 22/M01 A2985 RMK A01 T02171008  RH  022%=      5-min Rain = 0
KHA3 180034Z 14010KT 22/M01 A2985 RMK A01 T02171007  RH  022%=      5-min Rain = 0
KHA3 180035Z 14009KT 22/M01 A2985 RMK A01 T02171008  RH  022%=      5-min Rain = 0
KHA3 180036Z 14010KT 22/M01 A2985 RMK A01 T02171008  RH  022%=      5-min Rain = 0
KHA3 180037Z 14010KT 22/M01 A2985 RMK A01 T02171009  RH  022%=      5-min Rain = 0
KHA3 180038Z 14009KT 22/M01 A2985 RMK A01 T02181009  RH  022%=      5-min Rain = 0
KHA3 180039Z 14010KT 22/M01 A2985 RMK A01 T02181009  RH  022%=      5-min Rain = 0
KHA3 180040Z 14010KT 22/M01 A2985 RMK A01 T02181009  RH  022%=      5-min Rain = 0
KHA3 180041Z 14009KT 22/M01 A2985 RMK A01 T02181010  RH  022%=      5-min Rain = 0
KHA3 180042Z 14009KT 22/M01 A2985 RMK A01 T02171010  RH  022%=      5-min Rain = 0
KHA3 180043Z 14010KT 22/M01 A2985 RMK A01 T02161010  RH  022%=      5-min Rain = 0
KHA3 180044Z 14009KT 22/M01 A2985 RMK A01 T02151011  RH  022%=      5-min Rain = 0
KHA3 180045Z 14009KT 21/M01 A2985 RMK A01 T02141012  RH  022%=      5-min Rain = 0
KHA3 180046Z 14010KT 21/M01 A2985 RMK A01 T02141012  RH  022%=      5-min Rain = 0
KHA3 180047Z 14010KT 22/M01 A2985 RMK A01 T02151013  RH  022%=      5-min Rain = 0
KHA3 180048Z 14010KT 22/M01 A2985 RMK A01 T02151014  RH  022%=      5-min Rain = 0
KHA3 180049Z 14011KT 22/M02 A2985 RMK A01 T02161015  RH  021%=      5-min Rain = 0
KHA3 180050Z 14011KT 22/M02 A2985 RMK A01 T02161016  RH  021%=      5-min Rain = 0
KHA3 180051Z 14011KT 22/M02 A2984 RMK A01 T02171016  RH  021%=      5-min Rain = 0
KHA3 180052Z 14011KT 22/M02 A2984 RMK A01 T02181018  RH  021%=      5-min Rain = 0
KHA3 180053Z 14011KT 22/M02 A2985 RMK A01 T02191018  RH  021%=      5-min Rain = 0
KHA3 180054Z 14011KT 22/M02 A2984 RMK A01 T02191018  RH  020%=      5-min Rain = 0
KHA3 180055Z 15011KT 22/M02 A2985 RMK A01 T02191018  RH  020%=      5-min Rain = 0
KHA3 180056Z 14011KT 22/M02 A2985 RMK A01 T02181018  RH  021%=      5-min Rain = 0
KHA3 180057Z 14010KT 22/M02 A2985 RMK A01 T02171018  RH  021%=      5-min Rain = 0
KHA3 180058Z 14012KT 22/M02 A2985 RMK A01 T02171019  RH  021%=      5-min Rain = 0
KHA3 180059Z 14011KT 22/M02 A2985 RMK A01 T02161019  RH  021%=      5-min Rain = 0
KHA3 180100Z 14012KT 22/M02 A2985 RMK A01 T02161020  RH  021%=      5-min Rain = 0
KHA3 180101Z 14011KT 22/M02 A2985 RMK A01 T02161020  RH  020%=      5-min Rain = 0
KHA3 180102Z 14011KT 22/M02 A2985 RMK A01 T02161019  RH  021%=      5-min Rain = 0
KHA3 180103Z 14011KT 22/M02 A2985 RMK A01 T02161020  RH  020%=      5-min Rain = 0
KHA3 180104Z 15013KT 22/M02 A2985 RMK A01 T02161021  RH  020%=      5-min Rain = 0
KHA3 180105Z 14012KT 22/M02 A2984 RMK A01 T02161022  RH  020%=      5-min Rain = 0
KHA3 180106Z 14012KT 22/M02 A2984 RMK A01 T02171021  RH  020%=      5-min Rain = 0
KHA3 180107Z 14011KT 22/M02 A2984 RMK A01 T02161021  RH  020%=      5-min Rain = 0
KHA3 180108Z 14010KT 22/M02 A2984 RMK A01 T02161020  RH  020%=      5-min Rain = 0
KHA3 180109Z 14011KT 22/M02 A2984 RMK A01 T02151021  RH  020%=      5-min Rain = 0
KHA3 180110Z 15011KT 21/M02 A2985 RMK A01 T02141021  RH  021%=      5-min Rain = 0
KHA3 180111Z 14011KT 21/M02 A2985 RMK A01 T02141021  RH  021%=      5-min Rain = 0
KHA3 180112Z 15011KT 21/M02 A2985 RMK A01 T02141021  RH  021%=      5-min Rain = 0
KHA3 180113Z 14011KT 21/M02 A2985 RMK A01 T02141021  RH  021%=      5-min Rain = 0
KHA3 180114Z 15011KT 21/M02 A2985 RMK A01 T02141021  RH  021%=      5-min Rain = 0
KHA3 180115Z 14011KT 21/M02 A2984 RMK A01 T02141021  RH  021%=      5-min Rain = 0
KHA3 180116Z 15013KT 21/M02 A2984 RMK A01 T02141021  RH  021%=      5-min Rain = 0
KHA3 180117Z 15012KT 21/M02 A2984 RMK A01 T02141021  RH  021%=      5-min Rain = 0
KHA3 180118Z 15012KT 21/M02 A2984 RMK A01 T02141021  RH  021%=      5-min Rain = 0
KHA3 180119Z 14012KT 22/M02 A2984 RMK A01 T02151021  RH  020%=      5-min Rain = 0
KHA3 180120Z 15013KT 22/M02 A2984 RMK A01 T02161021  RH  020%=      5-min Rain = 0
KHA3 180121Z 15012KT 22/M02 A2984 RMK A01 T02161022  RH  020%=      5-min Rain = 0
KHA3 180122Z 15012KT 22/M02 A2984 RMK A01 T02161021  RH  020%=      5-min Rain = 0
KHA3 180123Z 15012KT 22/M02 A2984 RMK A01 T02161021  RH  020%=      5-min Rain = 0
KHA3 180124Z 15014KT 22/M02 A2984 RMK A01 T02151021  RH  020%=      5-min Rain = 0
KHA3 180125Z 15014KT 22/M02 A2984 RMK A01 T02161021  RH  020%=      5-min Rain = 0
KHA3 180126Z 15012KT 22/M02 A2984 RMK A01 T02161021  RH  020%=      5-min Rain = 0
KHA3 180127Z 15012KT 22/M02 A2984 RMK A01 T02161021  RH  020%=      5-min Rain = 0
KHA3 180128Z 15013KT 22/M02 A2984 RMK A01 T02161020  RH  020%=      5-min Rain = 0
KHA3 180129Z 15012KT 22/M02 A2984 RMK A01 T02151021  RH  020%=      5-min Rain = 0
KHA3 180130Z 15014KT 22/M02 A2984 RMK A01 T02161021  RH  020%=      5-min Rain = 0
KHA3 180131Z 16013KT 22/M02 A2984 RMK A01 T02161020  RH  020%=      5-min Rain = 0
KHA3 180132Z 15013KT 22/M02 A2984 RMK A01 T02171020  RH  020%=      5-min Rain = 0
KHA3 180133Z 15014KT 22/M02 A2984 RMK A01 T02161020  RH  020%=      5-min Rain = 0
KHA3 180134Z 16013KT 22/M02 A2984 RMK A01 T02171020  RH  020%=      5-min Rain = 0
KHA3 180135Z 15012KT 22/M02 A2984 RMK A01 T02161019  RH  021%=      5-min Rain = 0
KHA3 180136Z 15013KT 22/M02 A2984 RMK A01 T02151019  RH  021%=      5-min Rain = 0
KHA3 180137Z 15012KT 22/M02 A2984 RMK A01 T02151019  RH  021%=      5-min Rain = 0
KHA3 180138Z 15013KT 21/M02 A2984 RMK A01 T02141019  RH  021%=      5-min Rain = 0
KHA3 180139Z 15012KT 21/M02 A2984 RMK A01 T02141019  RH  021%=      5-min Rain = 0
KHA3 180140Z 16013KT 21/M02 A2984 RMK A01 T02131019  RH  021%=      5-min Rain = 0
KHA3 180141Z 15013KT 21/M02 A2984 RMK A01 T02131018  RH  021%=      5-min Rain = 0
KHA3 180142Z 15012KT 21/M02 A2984 RMK A01 T02131018  RH  021%=      5-min Rain = 0
KHA3 180143Z 16013KT 21/M02 A2984 RMK A01 T02131018  RH  021%=      5-min Rain = 0
KHA3 180144Z 15012KT 21/M02 A2984 RMK A01 T02131018  RH  021%=      5-min Rain = 0
KHA3 180145Z 15014KT 21/M02 A2984 RMK A01 T02131017  RH  021%=      5-min Rain = 0
KHA3 180146Z 15012KT 21/M02 A2984 RMK A01 T02131017  RH  021%=      5-min Rain = 0
KHA3 180147Z 15013KT 21/M02 A2984 RMK A01 T02121017  RH  021%=      5-min Rain = 0
KHA3 180148Z 15014KT 21/M02 A2984 RMK A01 T02121017  RH  021%=      5-min Rain = 0
KHA3 180149Z 15012KT 21/M02 A2984 RMK A01 T02121017  RH  022%=      5-min Rain = 0
KHA3 180150Z 14013KT 21/M02 A2984 RMK A01 T02111016  RH  022%=      5-min Rain = 0
KHA3 180151Z 13012KT 21/M02 A2984 RMK A01 T02111016  RH  022%=      5-min Rain = 0
KHA3 180152Z 13010KT 21/M02 A2984 RMK A01 T02111016  RH  022%=      5-min Rain = 0
KHA3 180153Z 13010KT 21/M02 A2984 RMK A01 T02101016  RH  022%=      5-min Rain = 0
KHA3 180154Z 14011KT 21/M02 A2984 RMK A01 T02091017  RH  022%=      5-min Rain = 0
KHA3 180155Z 14011KT 21/M02 A2984 RMK A01 T02081017  RH  022%=      5-min Rain = 0
KHA3 180156Z 14011KT 21/M02 A2984 RMK A01 T02081017  RH  022%=      5-min Rain = 0
KHA3 180157Z 14012KT 21/M02 A2984 RMK A01 T02071017  RH  022%=      5-min Rain = 0
KHA3 180158Z 13010KT 21/M02 A2984 RMK A01 T02061017  RH  022%=      5-min Rain = 0
KHA3 180159Z 13010KT 21/M02 A2984 RMK A01 T02061017  RH  022%=      5-min Rain = 0
KHA3 180200Z 14010KT 21/M02 A2984 RMK A01 T02061017  RH  022%=      5-min Rain = 0
KHA3 180201Z 14010KT 21/M02 A2984 RMK A01 T02061017  RH  022%=      5-min Rain = 0
KHA3 180202Z 14012KT 21/M02 A2984 RMK A01 T02051017  RH  022%=      5-min Rain = 0
KHA3 180203Z 14012KT 21/M02 A2984 RMK A01 T02051017  RH  022%=      5-min Rain = 0
KHA3 180204Z 14012KT 21/M02 A2984 RMK A01 T02051017  RH  022%=      5-min Rain = 0
KHA3 180205Z 14011KT 21/M02 A2984 RMK A01 T02051016  RH  023%=      5-min Rain = 0
KHA3 180206Z 14012KT 20/M02 A2984 RMK A01 T02041017  RH  023%=      5-min Rain = 0
KHA3 180207Z 14012KT 20/M02 A2984 RMK A01 T02041017  RH  023%=      5-min Rain = 0
KHA3 180208Z 14010KT 20/M02 A2984 RMK A01 T02041017  RH  023%=      5-min Rain = 0
KHA3 180209Z 14010KT 20/M02 A2984 RMK A01 T02041016  RH  023%=      5-min Rain = 0
KHA3 180210Z 13011KT 20/M02 A2984 RMK A01 T02031017  RH  023%=      5-min Rain = 0
KHA3 180211Z 13011KT 20/M02 A2984 RMK A01 T02031017  RH  023%=      5-min Rain = 0
KHA3 180212Z 14011KT 20/M02 A2984 RMK A01 T02021016  RH  023%=      5-min Rain = 0
KHA3 180213Z 14012KT 20/M02 A2984 RMK A01 T02021017  RH  023%=      5-min Rain = 0
KHA3 180214Z 13010KT 20/M02 A2984 RMK A01 T02021017  RH  023%=      5-min Rain = 0
KHA3 180215Z 14012KT 20/M02 A2984 RMK A01 T02021016  RH  023%=      5-min Rain = 0
KHA3 180216Z 13013KT 20/M02 A2984 RMK A01 T02011016  RH  023%=      5-min Rain = 0
KHA3 180217Z 14013KT 20/M02 A2984 RMK A01 T02021015  RH  023%=      5-min Rain = 0
KHA3 180218Z 14013KT 20/M02 A2984 RMK A01 T02021015  RH  023%=      5-min Rain = 0
KHA3 180219Z 14011KT 20/M02 A2984 RMK A01 T02021015  RH  023%=      5-min Rain = 0
KHA3 180220Z 14012KT 20/M01 A2984 RMK A01 T02011014  RH  023%=      5-min Rain = 0
KHA3 180221Z 14012KT 20/M01 A2984 RMK A01 T02011014  RH  023%=      5-min Rain = 0
KHA3 180222Z 14013KT 20/M01 A2984 RMK A01 T02001013  RH  024%=      5-min Rain = 0
KHA3 180223Z 14014KT 20/M01 A2984 RMK A01 T02001013  RH  024%=      5-min Rain = 0
KHA3 180224Z 14013KT 20/M01 A2984 RMK A01 T02001012  RH  024%=      5-min Rain = 0
KHA3 180225Z 14014KT 20/M01 A2984 RMK A01 T02011011  RH  024%=      5-min Rain = 0
KHA3 180226Z 15013G19KT 20/M01 A2984 RMK A01 T02001011  RH  024%=      5-min Rain = 0
KHA3 180227Z 15015KT 20/M01 A2984 RMK A01 T02001010  RH  024%=      5-min Rain = 0
KHA3 180228Z 14013KT 20/M01 A2984 RMK A01 T02001009  RH  025%=      5-min Rain = 0
KHA3 180229Z 14014KT 20/M01 A2984 RMK A01 T01991009  RH  025%=      5-min Rain = 0
KHA3 180230Z 14014KT 20/M01 A2984 RMK A01 T01991008  RH  025%=      5-min Rain = 0
KHA3 180231Z 15014KT 20/M01 A2984 RMK A01 T01981007  RH  025%=      5-min Rain = 0
KHA3 180232Z 14015KT 20/M01 A2984 RMK A01 T01981006  RH  025%=      5-min Rain = 0
KHA3 180233Z 14014KT 20/M01 A2984 RMK A01 T01981006  RH  025%=      5-min Rain = 0
KHA3 180234Z 15014KT 20/M01 A2984 RMK A01 T01981005  RH  026%=      5-min Rain = 0
KHA3 180235Z 14015KT 20/M01 A2984 RMK A01 T01971005  RH  026%=      5-min Rain = 0
KHA3 180236Z 14015KT 20/M00 A2984 RMK A01 T01971004  RH  026%=      5-min Rain = 0
KHA3 180237Z 14015KT 20/M00 A2984 RMK A01 T01981004  RH  026%=      5-min Rain = 0
KHA3 180238Z 15016KT 20/M00 A2984 RMK A01 T01981004  RH  026%=      5-min Rain = 0
KHA3 180239Z 14015KT 20/M00 A2984 RMK A01 T01981004  RH  026%=      5-min Rain = 0
KHA3 180240Z 14015KT 20/M00 A2984 RMK A01 T01981003  RH  026%=      5-min Rain = 0
KHA3 180241Z 14014KT 20/M00 A2984 RMK A01 T01971003  RH  026%=      5-min Rain = 0
KHA3 180242Z 14012G17KT 20/M00 A2984 RMK A01 T01961003  RH  026%=      5-min Rain = 0
KHA3 180243Z 15013KT 20/M00 A2984 RMK A01 T01951002  RH  027%=      5-min Rain = 0
KHA3 180244Z 15013KT 19/M00 A2984 RMK A01 T01941002  RH  027%=      5-min Rain = 0
KHA3 180245Z 15013KT 19/M00 A2984 RMK A01 T01941001  RH  027%=      5-min Rain = 0
KHA3 180246Z 14013KT 19/M00 A2984 RMK A01 T01941001  RH  027%=      5-min Rain = 0
KHA3 180247Z 15013KT 19/M00 A2984 RMK A01 T01931001  RH  027%=      5-min Rain = 0
KHA3 180248Z 15013KT 19/00 A2984 RMK A01 T019200-0  RH  027%=      5-min Rain = 0
KHA3 180249Z 15013KT 19/00 A2984 RMK A01 T01920000  RH  027%=      5-min Rain = 0
KHA3 180250Z 15014KT 19/00 A2984 RMK A01 T01920000  RH  028%=      5-min Rain = 0
KHA3 180251Z 14013KT 19/00 A2984 RMK A01 T01920001  RH  028%=      5-min Rain = 0
KHA3 180252Z 14014KT 19/00 A2984 RMK A01 T01910001  RH  028%=      5-min Rain = 0
KHA3 180253Z 15014KT 19/00 A2984 RMK A01 T01910002  RH  028%=      5-min Rain = 0
KHA3 180254Z 15014KT 19/00 A2984 RMK A01 T01910002  RH  028%=      5-min Rain = 0
KHA3 180255Z 15014KT 19/00 A2984 RMK A01 T01910002  RH  028%=      5-min Rain = 0
KHA3 180256Z 15012KT 19/00 A2984 RMK A01 T01910002  RH  028%=      5-min Rain = 0
KHA3 180257Z 15014KT 19/00 A2984 RMK A01 T01900003  RH  028%=      5-min Rain = 0
KHA3 180258Z 15014KT 19/00 A2984 RMK A01 T01900003  RH  029%=      5-min Rain = 0
KHA3 180259Z 15013KT 19/00 A2984 RMK A01 T01900003  RH  029%=      5-min Rain = 0
KHA3 180300Z 14014KT 19/00 A2984 RMK A01 T01890004  RH  029%=      5-min Rain = 0
KHA3 180301Z 15015KT 19/00 A2984 RMK A01 T01890004  RH  029%=      5-min Rain = 0
KHA3 180302Z 15015KT 19/00 A2984 RMK A01 T01900004  RH  029%=      5-min Rain = 0
KHA3 180303Z 15013KT 19/01 A2984 RMK A01 T01900005  RH  029%=      5-min Rain = 0
KHA3 180304Z 15015KT 19/01 A2984 RMK A01 T01890005  RH  029%=      5-min Rain = 0
KHA3 180305Z 15015KT 19/01 A2984 RMK A01 T01890005  RH  029%=      5-min Rain = 0
KHA3 180306Z 15014KT 19/01 A2984 RMK A01 T01890005  RH  029%=      5-min Rain = 0
KHA3 180307Z 15013KT 19/01 A2984 RMK A01 T01890005  RH  029%=      5-min Rain = 0
KHA3 180308Z 15015KT 19/01 A2984 RMK A01 T01880006  RH  029%=      5-min Rain = 0
KHA3 180309Z 15012KT 19/01 A2984 RMK A01 T01880006  RH  029%=      5-min Rain = 0
KHA3 180310Z 15013KT 19/01 A2984 RMK A01 T01880006  RH  030%=      5-min Rain = 0
KHA3 180311Z 15014KT 19/01 A2984 RMK A01 T01870006  RH  030%=      5-min Rain = 0
KHA3 180312Z 15015KT 19/01 A2984 RMK A01 T01870006  RH  030%=      5-min Rain = 0
KHA3 180313Z 15015KT 19/01 A2984 RMK A01 T01880006  RH  029%=      5-min Rain = 0
KHA3 180314Z 16015KT 19/01 A2984 RMK A01 T01880006  RH  029%=      5-min Rain = 0
KHA3 180315Z 16017KT 19/01 A2984 RMK A01 T01880006  RH  029%=      5-min Rain = 0
KHA3 180316Z 16014KT 19/01 A2984 RMK A01 T01880006  RH  029%=      5-min Rain = 0
KHA3 180317Z 16013KT 19/01 A2984 RMK A01 T01880006  RH  029%=      5-min Rain = 0
KHA3 180318Z 16016KT 19/01 A2984 RMK A01 T01880006  RH  030%=      5-min Rain = 0
KHA3 180319Z 16013KT 19/01 A2984 RMK A01 T01870006  RH  030%=      5-min Rain = 0
KHA3 180320Z 16015KT 19/01 A2984 RMK A01 T01870006  RH  030%=      5-min Rain = 0
KHA3 180321Z 16014KT 19/01 A2984 RMK A01 T01870006  RH  030%=      5-min Rain = 0
KHA3 180322Z 16016KT 19/01 A2984 RMK A01 T01870006  RH  030%=      5-min Rain = 0
KHA3 180323Z 16015G21KT 19/01 A2984 RMK A01 T01870006  RH  030%=      5-min Rain = 0
KHA3 180324Z 16017KT 19/01 A2984 RMK A01 T01870006  RH  030%=      5-min Rain = 0
KHA3 180325Z 16015G20KT 19/01 A2984 RMK A01 T01870007  RH  030%=      5-min Rain = 0
KHA3 180326Z 16014KT 19/01 A2984 RMK A01 T01870007  RH  030%=      5-min Rain = 0
KHA3 180327Z 16014KT 19/01 A2984 RMK A01 T01860006  RH  030%=      5-min Rain = 0
KHA3 180328Z 16015KT 19/01 A2984 RMK A01 T01850006  RH  030%=      5-min Rain = 0
KHA3 180329Z 16015KT 19/01 A2984 RMK A01 T01850007  RH  030%=      5-min Rain = 0
KHA3 180330Z 16014G19KT 19/01 A2984 RMK A01 T01850007  RH  030%=      5-min Rain = 0
KHA3 180331Z 16015KT 18/01 A2984 RMK A01 T01840007  RH  030%=      5-min Rain = 0
KHA3 180332Z 16014KT 18/01 A2984 RMK A01 T01830007  RH  031%=      5-min Rain = 0
KHA3 180333Z 16015KT 18/01 A2984 RMK A01 T01820007  RH  031%=      5-min Rain = 0
KHA3 180334Z 16012KT 18/01 A2984 RMK A01 T01820008  RH  031%=      5-min Rain = 0
KHA3 180335Z 16014KT 18/01 A2984 RMK A01 T01820007  RH  031%=      5-min Rain = 0
KHA3 180336Z 16014KT 18/01 A2984 RMK A01 T01800007  RH  031%=      5-min Rain = 0
KHA3 180337Z 16013KT 18/01 A2984 RMK A01 T01800008  RH  031%=      5-min Rain = 0
KHA3 180338Z 16014KT 18/01 A2984 RMK A01 T01800008  RH  031%=      5-min Rain = 0
KHA3 180339Z 16014KT 18/01 A2984 RMK A01 T01800007  RH  031%=      5-min Rain = 0
KHA3 180340Z 16014KT 18/01 A2984 RMK A01 T01800007  RH  031%=      5-min Rain = 0
KHA3 180341Z 16013KT 18/01 A2984 RMK A01 T01790007  RH  031%=      5-min Rain = 0
KHA3 180342Z 17014KT 18/01 A2985 RMK A01 T01790008  RH  031%=      5-min Rain = 0
KHA3 180343Z 16013KT 18/01 A2985 RMK A01 T01790008  RH  032%=      5-min Rain = 0
KHA3 180344Z 16014KT 18/01 A2985 RMK A01 T01790008  RH  032%=      5-min Rain = 0
KHA3 180345Z 16013KT 18/01 A2985 RMK A01 T01780008  RH  032%=      5-min Rain = 0
KHA3 180346Z 17014KT 18/01 A2985 RMK A01 T01780008  RH  032%=      5-min Rain = 0
KHA3 180347Z 16014KT 18/01 A2985 RMK A01 T01780008  RH  032%=      5-min Rain = 0
KHA3 180348Z 16014KT 18/01 A2985 RMK A01 T01770008  RH  032%=      5-min Rain = 0
KHA3 180349Z 17014KT 18/01 A2985 RMK A01 T01770008  RH  032%=      5-min Rain = 0
KHA3 180350Z 16015KT 18/01 A2985 RMK A01 T01770008  RH  032%=      5-min Rain = 0
KHA3 180351Z 17013KT 18/01 A2985 RMK A01 T01770008  RH  032%=      5-min Rain = 0
KHA3 180352Z 17015KT 18/01 A2985 RMK A01 T01770008  RH  032%=      5-min Rain = 0
KHA3 180353Z 17013KT 18/01 A2985 RMK A01 T01770008  RH  032%=      5-min Rain = 0
KHA3 180354Z 17014KT 18/01 A2985 RMK A01 T01760008  RH  032%=      5-min Rain = 0
KHA3 180355Z 17015KT 18/01 A2985 RMK A01 T01760008  RH  032%=      5-min Rain = 0
KHA3 180356Z 17013KT 18/01 A2985 RMK A01 T01760008  RH  032%=      5-min Rain = 0
KHA3 180357Z 17014KT 18/01 A2985 RMK A01 T01760009  RH  032%=      5-min Rain = 0
KHA3 180358Z 17013KT 18/01 A2985 RMK A01 T01750008  RH  032%=      5-min Rain = 0
KHA3 180359Z 17013KT 18/01 A2985 RMK A01 T01750008  RH  033%=      5-min Rain = 0
KHA3 180400Z 17014KT 17/01 A2985 RMK A01 T01740008  RH  033%=      5-min Rain = 0
KHA3 180401Z 18012KT 17/01 A2985 RMK A01 T01740008  RH  033%=      5-min Rain = 0
KHA3 180402Z 18013KT 17/01 A2985 RMK A01 T01740008  RH  033%=      5-min Rain = 0
KHA3 180403Z 17014KT 17/01 A2985 RMK A01 T01740008  RH  033%=      5-min Rain = 0
KHA3 180404Z 17015KT 17/01 A2985 RMK A01 T01740007  RH  032%=      5-min Rain = 0
KHA3 180405Z 18013KT 17/01 A2985 RMK A01 T01740008  RH  032%=      5-min Rain = 0
KHA3 180406Z 17015KT 17/01 A2985 RMK A01 T01740007  RH  032%=      5-min Rain = 0
KHA3 180407Z 18014KT 17/01 A2985 RMK A01 T01740007  RH  032%=      5-min Rain = 0
KHA3 180408Z 18013KT 17/01 A2985 RMK A01 T01740007  RH  032%=      5-min Rain = 0
KHA3 180409Z 18014KT 17/01 A2985 RMK A01 T01740007  RH  032%=      5-min Rain = 0
KHA3 180410Z 18015KT 17/01 A2985 RMK A01 T01730007  RH  032%=      5-min Rain = 0
KHA3 180411Z 18015KT 17/01 A2985 RMK A01 T01730006  RH  032%=      5-min Rain = 0
KHA3 180412Z 17014KT 17/01 A2985 RMK A01 T01740006  RH  032%=      5-min Rain = 0
KHA3 180413Z 18013KT 17/01 A2985 RMK A01 T01740006  RH  032%=      5-min Rain = 0
KHA3 180414Z 18014KT 17/01 A2985 RMK A01 T01730006  RH  032%=      5-min Rain = 0
KHA3 180415Z 17013KT 17/01 A2985 RMK A01 T01730005  RH  032%=      5-min Rain = 0
KHA3 180416Z 17014KT 17/01 A2985 RMK A01 T01720005  RH  032%=      5-min Rain = 0
KHA3 180417Z 18014KT 17/01 A2985 RMK A01 T01720005  RH  032%=      5-min Rain = 0
KHA3 180418Z 18014KT 17/00 A2985 RMK A01 T01720004  RH  032%=      5-min Rain = 0
KHA3 180419Z 18013KT 17/00 A2985 RMK A01 T01720004  RH  032%=      5-min Rain = 0
KHA3 180420Z 18015KT 17/00 A2985 RMK A01 T01710004  RH  032%=      5-min Rain = 0
KHA3 180421Z 18013KT 17/00 A2985 RMK A01 T01720003  RH  032%=      5-min Rain = 0
KHA3 180422Z 18014KT 17/00 A2986 RMK A01 T01710002  RH  032%=      5-min Rain = 0
KHA3 180423Z 18013KT 17/00 A2986 RMK A01 T01720001  RH  031%=      5-min Rain = 0
KHA3 180424Z 18015KT 17/00 A2986 RMK A01 T01730001  RH  031%=      5-min Rain = 0
KHA3 180425Z 17014KT 17/00 A2985 RMK A01 T01720001  RH  031%=      5-min Rain = 0
KHA3 180426Z 17014KT 17/00 A2985 RMK A01 T01720000  RH  031%=      5-min Rain = 0
KHA3 180427Z 17015KT 17/00 A2985 RMK A01 T017200-0  RH  031%=      5-min Rain = 0
KHA3 180428Z 17013KT 17/00 A2985 RMK A01 T017200-0  RH  031%=      5-min Rain = 0
KHA3 180429Z 17014KT 17/M00 A2985 RMK A01 T01711001  RH  031%=      5-min Rain = 0
KHA3 180430Z 17014KT 17/M00 A2985 RMK A01 T01711002  RH  031%=      5-min Rain = 0
KHA3 180431Z 17014KT 17/M00 A2985 RMK A01 T01701002  RH  031%=      5-min Rain = 0
KHA3 180432Z 17014KT 17/M00 A2985 RMK A01 T01711003  RH  031%=      5-min Rain = 0
KHA3 180433Z 17013KT 17/M00 A2985 RMK A01 T01711003  RH  031%=      5-min Rain = 0
KHA3 180434Z 18015KT 17/M00 A2985 RMK A01 T01701003  RH  031%=      5-min Rain = 0
KHA3 180435Z 18014KT 17/M00 A2985 RMK A01 T01711003  RH  031%=      5-min Rain = 0
KHA3 180436Z 18015KT 17/M00 A2985 RMK A01 T01701004  RH  031%=      5-min Rain = 0
KHA3 180437Z 18014KT 17/M01 A2985 RMK A01 T01701005  RH  030%=      5-min Rain = 0
KHA3 180438Z 17013KT 17/M01 A2985 RMK A01 T01701005  RH  030%=      5-min Rain = 0
KHA3 180439Z 17015G20KT 17/M01 A2985 RMK A01 T01691005  RH  030%=      5-min Rain = 0
KHA3 180440Z 18013KT 17/M01 A2985 RMK A01 T01691006  RH  030%=      5-min Rain = 0
KHA3 180441Z 17014KT 17/M01 A2985 RMK A01 T01691006  RH  030%=      5-min Rain = 0
KHA3 180442Z 17013KT 17/M01 A2985 RMK A01 T01691006  RH  030%=      5-min Rain = 0
KHA3 180443Z 17014KT 17/M01 A2985 RMK A01 T01681006  RH  031%=      5-min Rain = 0
KHA3 180444Z 18013KT 17/M01 A2985 RMK A01 T01681007  RH  030%=      5-min Rain = 0
KHA3 180445Z 18013KT 17/M01 A2985 RMK A01 T01681007  RH  030%=      5-min Rain = 0
KHA3 180446Z 17013KT 17/M01 A2985 RMK A01 T01681007  RH  030%=      5-min Rain = 0
KHA3 180447Z 17014KT 17/M01 A2985 RMK A01 T01671007  RH  030%=      5-min Rain = 0
KHA3 180448Z 17013KT 17/M01 A2985 RMK A01 T01671008  RH  030%=      5-min Rain = 0
KHA3 180449Z 17014KT 17/M01 A2985 RMK A01 T01671008  RH  030%=      5-min Rain = 0
KHA3 180450Z 17013KT 17/M01 A2985 RMK A01 T01671009  RH  030%=      5-min Rain = 0
KHA3 180451Z 17012KT 17/M01 A2985 RMK A01 T01671009  RH  030%=      5-min Rain = 0
KHA3 180452Z 17013KT 17/M01 A2985 RMK A01 T01661010  RH  030%=      5-min Rain = 0
KHA3 180453Z 17014KT 17/M01 A2985 RMK A01 T01661010  RH  030%=      5-min Rain = 0
KHA3 180454Z 17014KT 17/M01 A2985 RMK A01 T01661011  RH  030%=      5-min Rain = 0
KHA3 180455Z 17013KT 17/M01 A2985 RMK A01 T01661012  RH  030%=      5-min Rain = 0
KHA3 180456Z 17014KT 17/M01 A2984 RMK A01 T01671013  RH  029%=      5-min Rain = 0
KHA3 180457Z 17013KT 17/M01 A2984 RMK A01 T01671014  RH  029%=      5-min Rain = 0
KHA3 180458Z 17014KT 17/M01 A2984 RMK A01 T01671014  RH  029%=      5-min Rain = 0
KHA3 180459Z 17014KT 17/M01 A2984 RMK A01 T01671014  RH  029%=      5-min Rain = 0

Page generated in 0.1188 seconds.